Observation data for Amarillo 7 South Southeast on 06/15/2019      Previous  Date  Next       Current Mesonet Observations  Soil Data  Daily Summary Page  Observations in Plain Language
KAM1 150500Z 18019KT 26/16 A298 RMK A01 T02600158  RH  053%=      5-min Rain = 0
KAM1 150501Z 18020G27KT 26/16 A298 RMK A01 T02590159  RH  054%=      5-min Rain = 0
KAM1 150502Z 18018KT 26/16 A298 RMK A01 T02590159  RH  054%=      5-min Rain = 0
KAM1 150503Z 18020KT 26/16 A298 RMK A01 T02580160  RH  055%=      5-min Rain = 0
KAM1 150504Z 18021KT 26/16 A298 RMK A01 T02580160  RH  055%=      5-min Rain = 0
KAM1 150505Z 18019G26KT 26/16 A298 RMK A01 T02580161  RH  055%=      5-min Rain = 0
KAM1 150506Z 18018G24KT 26/16 A298 RMK A01 T02570161  RH  055%=      5-min Rain = 0
KAM1 150507Z 19021KT 26/16 A298 RMK A01 T02560161  RH  056%=      5-min Rain = 0
KAM1 150508Z 18019KT 26/16 A298 RMK A01 T02560161  RH  056%=      5-min Rain = 0
KAM1 150509Z 18020KT 26/16 A298 RMK A01 T02560161  RH  056%=      5-min Rain = 0
KAM1 150510Z 18020G25KT 26/16 A298 RMK A01 T02560162  RH  056%=      5-min Rain = 0
KAM1 150511Z 18021KT 26/16 A298 RMK A01 T02560162  RH  056%=      5-min Rain = 0
KAM1 150512Z 18020KT 26/16 A298 RMK A01 T02560162  RH  056%=      5-min Rain = 0
KAM1 150513Z 18018KT 26/16 A298 RMK A01 T02560162  RH  056%=      5-min Rain = 0
KAM1 150514Z 19018G23KT 26/16 A2981 RMK A01 T02560163  RH  056%=      5-min Rain = 0
KAM1 150515Z 19020KT 25/16 A2981 RMK A01 T02540163  RH  057%=      5-min Rain = 0
KAM1 150516Z 19019G27KT 25/16 A2981 RMK A01 T02540163  RH  057%=      5-min Rain = 0
KAM1 150517Z 18017G22KT 25/16 A2981 RMK A01 T02540163  RH  057%=      5-min Rain = 0
KAM1 150518Z 19017KT 25/16 A2981 RMK A01 T02530164  RH  058%=      5-min Rain = 0
KAM1 150519Z 19018KT 25/16 A2981 RMK A01 T02520164  RH  058%=      5-min Rain = 0
KAM1 150520Z 19017KT 25/16 A298 RMK A01 T02510164  RH  058%=      5-min Rain = 0
KAM1 150521Z 18019KT 25/16 A2981 RMK A01 T02510164  RH  058%=      5-min Rain = 0
KAM1 150522Z 19019G25KT 25/16 A2981 RMK A01 T02510164  RH  059%=      5-min Rain = 0
KAM1 150523Z 19022KT 25/16 A298 RMK A01 T02500164  RH  059%=      5-min Rain = 0
KAM1 150524Z 19019KT 25/17 A298 RMK A01 T02510165  RH  059%=      5-min Rain = 0
KAM1 150525Z 19017G22KT 25/17 A298 RMK A01 T02520165  RH  059%=      5-min Rain = 0
KAM1 150526Z 18017KT 25/17 A298 RMK A01 T02510165  RH  059%=      5-min Rain = 0
KAM1 150527Z 19019G24KT 25/17 A298 RMK A01 T02500165  RH  059%=      5-min Rain = 0
KAM1 150528Z 19017G25KT 25/17 A298 RMK A01 T02500166  RH  059%=      5-min Rain = 0
KAM1 150529Z 19022KT 25/17 A298 RMK A01 T02500165  RH  059%=      5-min Rain = 0
KAM1 150530Z 19018KT 25/17 A298 RMK A01 T02500166  RH  059%=      5-min Rain = 0
KAM1 150531Z 19015G20KT 25/17 A298 RMK A01 T02500166  RH  060%=      5-min Rain = 0
KAM1 150532Z 18015G22KT 25/17 A2981 RMK A01 T02490166  RH  060%=      5-min Rain = 0
KAM1 150533Z 19018G25KT 25/17 A2981 RMK A01 T02480166  RH  060%=      5-min Rain = 0
KAM1 150534Z 19021KT 25/17 A298 RMK A01 T02470166  RH  061%=      5-min Rain = 0
KAM1 150535Z 18018KT 25/17 A2981 RMK A01 T02480166  RH  060%=      5-min Rain = 0
KAM1 150536Z 18019KT 25/17 A298 RMK A01 T02480167  RH  060%=      5-min Rain = 0
KAM1 150537Z 19014KT 25/17 A2981 RMK A01 T02480167  RH  061%=      5-min Rain = 0
KAM1 150538Z 19017G22KT 25/17 A298 RMK A01 T02470167  RH  061%=      5-min Rain = 0
KAM1 150539Z 19017G22KT 25/17 A298 RMK A01 T02460167  RH  062%=      5-min Rain = 0
KAM1 150540Z 19021G26KT 25/17 A298 RMK A01 T02450167  RH  062%=      5-min Rain = 0
KAM1 150541Z 19016G21KT 25/17 A2981 RMK A01 T02460167  RH  062%=      5-min Rain = 0
KAM1 150542Z 19019KT 25/17 A298 RMK A01 T02460168  RH  062%=      5-min Rain = 0
KAM1 150543Z 19020G25KT 25/17 A2981 RMK A01 T02460168  RH  062%=      5-min Rain = 0
KAM1 150544Z 19020KT 25/17 A298 RMK A01 T02460168  RH  062%=      5-min Rain = 0
KAM1 150545Z 19020KT 25/17 A298 RMK A01 T02460168  RH  062%=      5-min Rain = 0
KAM1 150546Z 19017KT 25/17 A2981 RMK A01 T02460168  RH  062%=      5-min Rain = 0
KAM1 150547Z 19019KT 25/17 A298 RMK A01 T02460168  RH  062%=      5-min Rain = 0
KAM1 150548Z 19019KT 25/17 A298 RMK A01 T02450168  RH  062%=      5-min Rain = 0
KAM1 150549Z 19020G26KT 25/17 A2981 RMK A01 T02450168  RH  062%=      5-min Rain = 0
KAM1 150550Z 19019G25KT 25/17 A298 RMK A01 T02460169  RH  062%=      5-min Rain = 0
KAM1 150551Z 19017KT 25/17 A2981 RMK A01 T02460169  RH  062%=      5-min Rain = 0
KAM1 150552Z 19016KT 25/17 A2981 RMK A01 T02450169  RH  062%=      5-min Rain = 0
KAM1 150553Z 19020G25KT 24/17 A298 RMK A01 T02440169  RH  063%=      5-min Rain = 0
KAM1 150554Z 19017G22KT 24/17 A2981 RMK A01 T02440169  RH  063%=      5-min Rain = 0
KAM1 150555Z 19018KT 24/17 A2981 RMK A01 T02440169  RH  063%=      5-min Rain = 0
KAM1 150556Z 19017G24KT 24/17 A2981 RMK A01 T02440169  RH  063%=      5-min Rain = 0
KAM1 150557Z 19016KT 24/17 A2981 RMK A01 T02430169  RH  063%=      5-min Rain = 0
KAM1 150558Z 19016KT 24/17 A2981 RMK A01 T02430169  RH  064%=      5-min Rain = 0
KAM1 150559Z 19020G25KT 24/17 A2981 RMK A01 T02420169  RH  064%=      5-min Rain = 0
KAM1 150600Z 19021G27KT 24/17 A2981 RMK A01 T02420169  RH  064%=      5-min Rain = 0
KAM1 150601Z 20016G22KT 24/17 A2981 RMK A01 T02420169  RH  064%=      5-min Rain = 0
KAM1 150602Z 19015G21KT 24/17 A2981 RMK A01 T02420170  RH  064%=      5-min Rain = 0
KAM1 150603Z 19016KT 24/17 A2981 RMK A01 T02420170  RH  064%=      5-min Rain = 0
KAM1 150604Z 19015G20KT 24/17 A2981 RMK A01 T02410170  RH  064%=      5-min Rain = 0
KAM1 150605Z 20016G21KT 24/17 A2981 RMK A01 T02410170  RH  065%=      5-min Rain = 0
KAM1 150606Z 19018KT 24/17 A2981 RMK A01 T02400170  RH  065%=      5-min Rain = 0
KAM1 150607Z 20017G22KT 24/17 A2981 RMK A01 T02400170  RH  065%=      5-min Rain = 0
KAM1 150608Z 20018KT 24/17 A2981 RMK A01 T02400170  RH  065%=      5-min Rain = 0
KAM1 150609Z 20019G24KT 24/17 A298 RMK A01 T02400170  RH  065%=      5-min Rain = 0
KAM1 150610Z 19018G25KT 24/17 A298 RMK A01 T02400169  RH  065%=      5-min Rain = 0
KAM1 150611Z 20019KT 24/17 A298 RMK A01 T02400170  RH  065%=      5-min Rain = 0
KAM1 150612Z 19022KT 24/17 A298 RMK A01 T02400169  RH  065%=      5-min Rain = 0
KAM1 150613Z 20021G27KT 24/17 A298 RMK A01 T02410170  RH  064%=      5-min Rain = 0
KAM1 150614Z 19018KT 24/17 A298 RMK A01 T02410169  RH  064%=      5-min Rain = 0
KAM1 150615Z 19017G22KT 24/17 A2981 RMK A01 T02400170  RH  065%=      5-min Rain = 0
KAM1 150616Z 20020G28KT 24/17 A298 RMK A01 T02390170  RH  065%=      5-min Rain = 0
KAM1 150617Z 19015G20KT 24/17 A2981 RMK A01 T02390170  RH  065%=      5-min Rain = 0
KAM1 150618Z 19017G23KT 24/17 A2981 RMK A01 T02380170  RH  066%=      5-min Rain = 0
KAM1 150619Z 19014KT 24/17 A2981 RMK A01 T02380170  RH  066%=      5-min Rain = 0
KAM1 150620Z 19015KT 24/17 A298 RMK A01 T02370170  RH  066%=      5-min Rain = 0
KAM1 150621Z 19017G22KT 24/17 A298 RMK A01 T02360170  RH  067%=      5-min Rain = 0
KAM1 150622Z 20016KT 24/17 A298 RMK A01 T02350170  RH  067%=      5-min Rain = 0
KAM1 150623Z 19018G23KT 24/17 A298 RMK A01 T02360170  RH  066%=      5-min Rain = 0
KAM1 150624Z 20017KT 24/17 A298 RMK A01 T02360170  RH  066%=      5-min Rain = 0
KAM1 150625Z 19017KT 24/17 A298 RMK A01 T02350170  RH  067%=      5-min Rain = 0
KAM1 150626Z 20017KT 24/17 A298 RMK A01 T02350170  RH  067%=      5-min Rain = 0
KAM1 150627Z 20016G22KT 24/17 A298 RMK A01 T02350170  RH  067%=      5-min Rain = 0
KAM1 150628Z 20015G22KT 23/17 A298 RMK A01 T02340170  RH  067%=      5-min Rain = 0
KAM1 150629Z 20019KT 23/17 A298 RMK A01 T02340170  RH  067%=      5-min Rain = 0
KAM1 150630Z 20018G25KT 23/17 A298 RMK A01 T02340170  RH  067%=      5-min Rain = 0
KAM1 150631Z 20016KT 23/17 A298 RMK A01 T02340170  RH  067%=      5-min Rain = 0
KAM1 150632Z 21018G26KT 23/17 A298 RMK A01 T02340170  RH  067%=      5-min Rain = 0
KAM1 150633Z 20018G25KT 23/17 A298 RMK A01 T02340170  RH  067%=      5-min Rain = 0
KAM1 150634Z 20020G27KT 24/17 A298 RMK A01 T02350170  RH  067%=      5-min Rain = 0
KAM1 150635Z 20018G25KT 24/17 A298 RMK A01 T02350170  RH  067%=      5-min Rain = 0
KAM1 150636Z 20020G27KT 24/17 A298 RMK A01 T02350170  RH  067%=      5-min Rain = 0
KAM1 150637Z 20017G22KT 24/17 A298 RMK A01 T02350170  RH  067%=      5-min Rain = 0
KAM1 150638Z 20019KT 24/17 A298 RMK A01 T02350170  RH  067%=      5-min Rain = 0
KAM1 150639Z 20016G21KT 23/17 A298 RMK A01 T02340170  RH  067%=      5-min Rain = 0
KAM1 150640Z 20017KT 23/17 A298 RMK A01 T02340170  RH  067%=      5-min Rain = 0
KAM1 150641Z 20017G23KT 23/17 A298 RMK A01 T02330170  RH  068%=      5-min Rain = 0
KAM1 150642Z 20015KT 23/17 A298 RMK A01 T02330170  RH  068%=      5-min Rain = 0
KAM1 150643Z 20014KT 23/17 A298 RMK A01 T02320170  RH  068%=      5-min Rain = 0
KAM1 150644Z 20018KT 23/17 A298 RMK A01 T02320170  RH  068%=      5-min Rain = 0
KAM1 150645Z 20015KT 23/17 A298 RMK A01 T02320170  RH  068%=      5-min Rain = 0
KAM1 150646Z 20014G19KT 23/17 A298 RMK A01 T02320170  RH  068%=      5-min Rain = 0
KAM1 150647Z 20015G20KT 23/17 A298 RMK A01 T02300170  RH  069%=      5-min Rain = 0
KAM1 150648Z 20013KT 23/17 A298 RMK A01 T02300170  RH  069%=      5-min Rain = 0
KAM1 150649Z 20013KT 23/17 A298 RMK A01 T02300171  RH  069%=      5-min Rain = 0
KAM1 150650Z 20014KT 23/17 A298 RMK A01 T02290170  RH  070%=      5-min Rain = 0
KAM1 150651Z 20017KT 23/17 A298 RMK A01 T02280170  RH  070%=      5-min Rain = 0
KAM1 150652Z 20015KT 23/17 A298 RMK A01 T02290170  RH  070%=      5-min Rain = 0
KAM1 150653Z 20017KT 23/17 A298 RMK A01 T02290170  RH  070%=      5-min Rain = 0
KAM1 150654Z 20014G20KT 23/17 A298 RMK A01 T02290170  RH  070%=      5-min Rain = 0
KAM1 150655Z 20014KT 23/17 A298 RMK A01 T02290171  RH  070%=      5-min Rain = 0
KAM1 150656Z 20014KT 23/17 A298 RMK A01 T02280171  RH  070%=      5-min Rain = 0
KAM1 150657Z 20015G20KT 23/17 A298 RMK A01 T02270171  RH  070%=      5-min Rain = 0
KAM1 150658Z 20017KT 23/17 A298 RMK A01 T02260170  RH  071%=      5-min Rain = 0
KAM1 150659Z 20015G20KT 23/17 A298 RMK A01 T02270171  RH  070%=      5-min Rain = 0
KAM1 150700Z 20015KT 23/17 A298 RMK A01 T02270171  RH  070%=      5-min Rain = 0
KAM1 150701Z 20018G23KT 23/17 A298 RMK A01 T02270171  RH  070%=      5-min Rain = 0
KAM1 150702Z 20014KT 23/17 A298 RMK A01 T02270170  RH  070%=      5-min Rain = 0
KAM1 150703Z 21018KT 23/17 A298 RMK A01 T02270171  RH  070%=      5-min Rain = 0
KAM1 150704Z 21016KT 23/17 A298 RMK A01 T02270171  RH  071%=      5-min Rain = 0
KAM1 150705Z 21017KT 23/17 A298 RMK A01 T02270171  RH  071%=      5-min Rain = 0
KAM1 150706Z 20017KT 23/17 A298 RMK A01 T02270171  RH  071%=      5-min Rain = 0
KAM1 150707Z 21016KT 23/17 A298 RMK A01 T02270171  RH  071%=      5-min Rain = 0
KAM1 150708Z 21016G22KT 23/17 A298 RMK A01 T02270171  RH  071%=      5-min Rain = 0
KAM1 150709Z 21019KT 23/17 A298 RMK A01 T02270171  RH  071%=      5-min Rain = 0
KAM1 150710Z 21018KT 23/17 A2979 RMK A01 T02270171  RH  070%=      5-min Rain = 0
KAM1 150711Z 21018G23KT 23/17 A2979 RMK A01 T02270170  RH  070%=      5-min Rain = 0
KAM1 150712Z 21018G23KT 23/17 A298 RMK A01 T02280171  RH  070%=      5-min Rain = 0
KAM1 150713Z 21018KT 23/17 A298 RMK A01 T02280171  RH  070%=      5-min Rain = 0
KAM1 150714Z 21021G26KT 23/17 A2979 RMK A01 T02280170  RH  070%=      5-min Rain = 0
KAM1 150715Z 21021KT 23/17 A2979 RMK A01 T02280170  RH  070%=      5-min Rain = 0
KAM1 150716Z 21016G21KT 23/17 A2979 RMK A01 T02290170  RH  070%=      5-min Rain = 0
KAM1 150717Z 21018KT 23/17 A2979 RMK A01 T02280170  RH  070%=      5-min Rain = 0
KAM1 150718Z 21018KT 23/17 A2979 RMK A01 T02270170  RH  070%=      5-min Rain = 0
KAM1 150719Z 21019G24KT 23/17 A2979 RMK A01 T02270170  RH  070%=      5-min Rain = 0
KAM1 150720Z 21016G22KT 23/17 A298 RMK A01 T02270169  RH  070%=      5-min Rain = 0
KAM1 150721Z 21015G20KT 23/17 A298 RMK A01 T02270170  RH  070%=      5-min Rain = 0
KAM1 150722Z 21017KT 23/17 A2979 RMK A01 T02250169  RH  071%=      5-min Rain = 0
KAM1 150723Z 21017KT 23/17 A2979 RMK A01 T02250169  RH  071%=      5-min Rain = 0
KAM1 150724Z 21015KT 23/17 A298 RMK A01 T02250169  RH  071%=      5-min Rain = 0
KAM1 150725Z 21016G21KT 22/17 A2979 RMK A01 T02240169  RH  071%=      5-min Rain = 0
KAM1 150726Z 21020KT 22/17 A2979 RMK A01 T02240168  RH  070%=      5-min Rain = 0
KAM1 150727Z 20020KT 23/17 A2979 RMK A01 T02260168  RH  070%=      5-min Rain = 0
KAM1 150728Z 21019G25KT 23/17 A2979 RMK A01 T02270168  RH  070%=      5-min Rain = 0
KAM1 150729Z 21019KT 23/17 A2979 RMK A01 T02260168  RH  070%=      5-min Rain = 0
KAM1 150730Z 21016KT 23/17 A2979 RMK A01 T02260168  RH  069%=      5-min Rain = 0
KAM1 150731Z 21019KT 23/17 A2979 RMK A01 T02260168  RH  070%=      5-min Rain = 0
KAM1 150732Z 20015KT 23/17 A298 RMK A01 T02260167  RH  069%=      5-min Rain = 0
KAM1 150733Z 20017KT 23/17 A298 RMK A01 T02260168  RH  070%=      5-min Rain = 0
KAM1 150734Z 21016KT 22/17 A298 RMK A01 T02240167  RH  070%=      5-min Rain = 0
KAM1 150735Z 21017KT 22/17 A298 RMK A01 T02240167  RH  070%=      5-min Rain = 0
KAM1 150736Z 21016G21KT 22/17 A298 RMK A01 T02240167  RH  070%=      5-min Rain = 0
KAM1 150737Z 21018KT 22/17 A298 RMK A01 T02230166  RH  070%=      5-min Rain = 0
KAM1 150738Z 21015G20KT 22/17 A298 RMK A01 T02230166  RH  070%=      5-min Rain = 0
KAM1 150739Z 20018KT 22/17 A2979 RMK A01 T02230166  RH  070%=      5-min Rain = 0
KAM1 150740Z 21016G21KT 22/17 A298 RMK A01 T02240166  RH  070%=      5-min Rain = 0
KAM1 150741Z 21018KT 22/17 A2979 RMK A01 T02240165  RH  070%=      5-min Rain = 0
KAM1 150742Z 21016KT 23/17 A298 RMK A01 T02250166  RH  069%=      5-min Rain = 0
KAM1 150743Z 21016KT 22/17 A298 RMK A01 T02240166  RH  069%=      5-min Rain = 0
KAM1 150744Z 21013KT 22/17 A298 RMK A01 T02230165  RH  070%=      5-min Rain = 0
KAM1 150745Z 21015KT 22/17 A298 RMK A01 T02220165  RH  070%=      5-min Rain = 0
KAM1 150746Z 21018KT 22/16 A298 RMK A01 T02220164  RH  070%=      5-min Rain = 0
KAM1 150747Z 21016KT 22/16 A298 RMK A01 T02230164  RH  069%=      5-min Rain = 0
KAM1 150748Z 21016KT 22/16 A298 RMK A01 T02230163  RH  069%=      5-min Rain = 0
KAM1 150749Z 21017KT 22/16 A298 RMK A01 T02230163  RH  069%=      5-min Rain = 0
KAM1 150750Z 21018KT 22/16 A298 RMK A01 T02240163  RH  068%=      5-min Rain = 0
KAM1 150751Z 21016KT 22/16 A298 RMK A01 T02240162  RH  068%=      5-min Rain = 0
KAM1 150752Z 21016KT 22/16 A298 RMK A01 T02240162  RH  068%=      5-min Rain = 0
KAM1 150753Z 21013KT 22/16 A298 RMK A01 T02240162  RH  068%=      5-min Rain = 0
KAM1 150754Z 21015KT 22/16 A298 RMK A01 T02230162  RH  068%=      5-min Rain = 0
KAM1 150755Z 21015KT 22/16 A298 RMK A01 T02230161  RH  068%=      5-min Rain = 0
KAM1 150756Z 21014KT 22/16 A298 RMK A01 T02230161  RH  068%=      5-min Rain = 0
KAM1 150757Z 21014KT 22/16 A298 RMK A01 T02220161  RH  068%=      5-min Rain = 0
KAM1 150758Z 21015KT 22/16 A298 RMK A01 T02220160  RH  068%=      5-min Rain = 0
KAM1 150759Z 21013KT 22/16 A298 RMK A01 T02220160  RH  068%=      5-min Rain = 0
KAM1 150800Z 21015KT 22/16 A298 RMK A01 T02220160  RH  068%=      5-min Rain = 0
KAM1 150801Z 21014KT 22/16 A298 RMK A01 T02220159  RH  068%=      5-min Rain = 0
KAM1 150802Z 21014KT 22/16 A298 RMK A01 T02220159  RH  068%=      5-min Rain = 0
KAM1 150803Z 21012G18KT 22/16 A298 RMK A01 T02210159  RH  068%=      5-min Rain = 0
KAM1 150804Z 21014KT 22/16 A298 RMK A01 T02210158  RH  068%=      5-min Rain = 0
KAM1 150805Z 21013KT 22/16 A298 RMK A01 T02200158  RH  068%=      5-min Rain = 0
KAM1 150806Z 21013KT 22/16 A298 RMK A01 T02200158  RH  068%=      5-min Rain = 0
KAM1 150807Z 21014KT 22/16 A298 RMK A01 T02200157  RH  068%=      5-min Rain = 0
KAM1 150808Z 21016KT 22/16 A298 RMK A01 T02200156  RH  067%=      5-min Rain = 0
KAM1 150809Z 21016KT 22/16 A298 RMK A01 T02210156  RH  066%=      5-min Rain = 0
KAM1 150810Z 22014KT 22/16 A298 RMK A01 T02220155  RH  066%=      5-min Rain = 0
KAM1 150811Z 22014KT 22/16 A298 RMK A01 T02230155  RH  066%=      5-min Rain = 0
KAM1 150812Z 22012KT 22/16 A298 RMK A01 T02230156  RH  066%=      5-min Rain = 0
KAM1 150813Z 21014KT 22/16 A298 RMK A01 T02210155  RH  066%=      5-min Rain = 0
KAM1 150814Z 21013G18KT 22/15 A298 RMK A01 T02210154  RH  066%=      5-min Rain = 0
KAM1 150815Z 21013KT 22/15 A298 RMK A01 T02210154  RH  066%=      5-min Rain = 0
KAM1 150816Z 22015KT 22/15 A298 RMK A01 T02200153  RH  066%=      5-min Rain = 0
KAM1 150817Z 22017KT 22/15 A298 RMK A01 T02200152  RH  065%=      5-min Rain = 0
KAM1 150818Z 22018KT 22/15 A298 RMK A01 T02220152  RH  064%=      5-min Rain = 0
KAM1 150819Z 22014KT 22/15 A298 RMK A01 T02230151  RH  064%=      5-min Rain = 0
KAM1 150820Z 23012KT 22/15 A298 RMK A01 T02240152  RH  064%=      5-min Rain = 0
KAM1 150821Z 23012KT 22/15 A298 RMK A01 T02230151  RH  064%=      5-min Rain = 0
KAM1 150822Z 23014KT 22/15 A298 RMK A01 T02220150  RH  064%=      5-min Rain = 0
KAM1 150823Z 24012KT 22/15 A2981 RMK A01 T02220150  RH  064%=      5-min Rain = 0
KAM1 150824Z 24012KT 22/15 A2981 RMK A01 T02220150  RH  064%=      5-min Rain = 0
KAM1 150825Z 26012KT 22/15 A2981 RMK A01 T02200150  RH  064%=      5-min Rain = 0
KAM1 150826Z 26013KT 22/15 A2982 RMK A01 T02180150  RH  065%=      5-min Rain = 0
KAM1 150827Z 26011KT 22/15 A2982 RMK A01 T02170150  RH  066%=      5-min Rain = 0
KAM1 150828Z 25012KT 22/15 A2982 RMK A01 T02150149  RH  066%=      5-min Rain = 0
KAM1 150829Z 25012KT 22/15 A2982 RMK A01 T02150149  RH  066%=      5-min Rain = 0
KAM1 150830Z 24012KT 22/15 A2981 RMK A01 T02150149  RH  066%=      5-min Rain = 0
KAM1 150831Z 24013KT 22/15 A2981 RMK A01 T02150149  RH  066%=      5-min Rain = 0
KAM1 150832Z 24011KT 22/15 A2982 RMK A01 T02150148  RH  066%=      5-min Rain = 0
KAM1 150833Z 25011KT 21/15 A2982 RMK A01 T02140149  RH  066%=      5-min Rain = 0
KAM1 150834Z 26011KT 21/15 A2982 RMK A01 T02120149  RH  067%=      5-min Rain = 0
KAM1 150835Z 26011KT 21/15 A2982 RMK A01 T02110148  RH  067%=      5-min Rain = 0
KAM1 150836Z 26009KT 21/15 A2982 RMK A01 T02100149  RH  068%=      5-min Rain = 0
KAM1 150837Z 25009KT 21/15 A2982 RMK A01 T02090149  RH  068%=      5-min Rain = 0
KAM1 150838Z 24009KT 21/15 A2982 RMK A01 T02070149  RH  069%=      5-min Rain = 0
KAM1 150839Z 24009KT 21/15 A2982 RMK A01 T02060148  RH  069%=      5-min Rain = 0
KAM1 150840Z 24009KT 21/15 A2982 RMK A01 T02060148  RH  070%=      5-min Rain = 0
KAM1 150841Z 24008KT 21/15 A2982 RMK A01 T02050148  RH  070%=      5-min Rain = 0
KAM1 150842Z 24009KT 20/15 A2982 RMK A01 T02040148  RH  070%=      5-min Rain = 0
KAM1 150843Z 25008KT 20/15 A2982 RMK A01 T02030148  RH  071%=      5-min Rain = 0
KAM1 150844Z 26008KT 20/15 A2983 RMK A01 T02020149  RH  072%=      5-min Rain = 0
KAM1 150845Z 27008KT 20/15 A2983 RMK A01 T02000149  RH  072%=      5-min Rain = 0
KAM1 150846Z 27007KT 20/15 A2983 RMK A01 T01980149  RH  073%=      5-min Rain = 0
KAM1 150847Z 27007KT 20/15 A2983 RMK A01 T01960149  RH  074%=      5-min Rain = 0
KAM1 150848Z 27007KT 19/15 A2983 RMK A01 T01940148  RH  075%=      5-min Rain = 0
KAM1 150849Z 25007KT 19/15 A2983 RMK A01 T01940149  RH  075%=      5-min Rain = 0
KAM1 150850Z 24007KT 19/15 A2982 RMK A01 T01930148  RH  076%=      5-min Rain = 0
KAM1 150851Z 23007KT 19/15 A2982 RMK A01 T01920149  RH  076%=      5-min Rain = 0
KAM1 150852Z 23007KT 19/15 A2982 RMK A01 T01920148  RH  076%=      5-min Rain = 0
KAM1 150853Z 24007KT 19/15 A2982 RMK A01 T01910149  RH  077%=      5-min Rain = 0
KAM1 150854Z 25007KT 19/15 A2983 RMK A01 T01900149  RH  077%=      5-min Rain = 0
KAM1 150855Z 26008KT 19/15 A2983 RMK A01 T01880149  RH  078%=      5-min Rain = 0
KAM1 150856Z 27007KT 19/15 A2983 RMK A01 T01860149  RH  079%=      5-min Rain = 0
KAM1 150857Z 26007KT 19/15 A2983 RMK A01 T01850149  RH  080%=      5-min Rain = 0
KAM1 150858Z 26007KT 18/15 A2983 RMK A01 T01840149  RH  080%=      5-min Rain = 0
KAM1 150859Z 25007KT 18/15 A2983 RMK A01 T01830150  RH  081%=      5-min Rain = 0
KAM1 150900Z 23007KT 18/15 A2982 RMK A01 T01810150  RH  082%=      5-min Rain = 0
KAM1 150901Z 22009KT 18/15 A2982 RMK A01 T01800149  RH  082%=      5-min Rain = 0
KAM1 150902Z 22009KT 18/15 A2982 RMK A01 T01800150  RH  083%=      5-min Rain = 0
KAM1 150903Z 22010KT 18/15 A2982 RMK A01 T01790150  RH  083%=      5-min Rain = 0
KAM1 150904Z 21010KT 18/15 A2982 RMK A01 T01790150  RH  083%=      5-min Rain = 0
KAM1 150905Z 22010KT 18/15 A2982 RMK A01 T01790150  RH  083%=      5-min Rain = 0
KAM1 150906Z 22008KT 18/15 A2982 RMK A01 T01800149  RH  082%=      5-min Rain = 0
KAM1 150907Z 23006KT 18/15 A2982 RMK A01 T01820149  RH  081%=      5-min Rain = 0
KAM1 150908Z 26006KT 18/15 A2982 RMK A01 T01820148  RH  080%=      5-min Rain = 0
KAM1 150909Z 29006KT 18/15 A2983 RMK A01 T01830147  RH  080%=      5-min Rain = 0
KAM1 150910Z 32007KT 18/15 A2983 RMK A01 T01820147  RH  080%=      5-min Rain = 0
KAM1 150911Z 32008KT 18/15 A2983 RMK A01 T01790148  RH  082%=      5-min Rain = 0
KAM1 150912Z 32008KT 18/15 A2983 RMK A01 T01760148  RH  084%=      5-min Rain = 0
KAM1 150913Z 32006KT 17/15 A2983 RMK A01 T01740148  RH  085%=      5-min Rain = 0
KAM1 150914Z 32005KT 17/15 A2983 RMK A01 T01730148  RH  085%=      5-min Rain = 0
KAM1 150915Z 31004KT 17/15 A2983 RMK A01 T01730148  RH  085%=      5-min Rain = 0
KAM1 150916Z 30002KT 17/15 A2983 RMK A01 T01730147  RH  085%=      5-min Rain = 0
KAM1 150917Z 32000KT 17/15 A2983 RMK A01 T01730146  RH  084%=      5-min Rain = 0
KAM1 150918Z 20001KT 17/15 A2983 RMK A01 T01730146  RH  084%=      5-min Rain = 0
KAM1 150919Z 18001KT 17/15 A2983 RMK A01 T01720145  RH  084%=      5-min Rain = 0
KAM1 150920Z 18002KT 17/14 A2983 RMK A01 T01690144  RH  085%=      5-min Rain = 0
KAM1 150921Z 18002KT 17/14 A2983 RMK A01 T01670144  RH  086%=      5-min Rain = 0
KAM1 150922Z 17003KT 17/14 A2983 RMK A01 T01660144  RH  087%=      5-min Rain = 0
KAM1 150923Z 17004KT 17/14 A2983 RMK A01 T01650143  RH  087%=      5-min Rain = 0
KAM1 150924Z 17004KT 16/14 A2983 RMK A01 T01630143  RH  088%=      5-min Rain = 0
KAM1 150925Z 17004KT 16/14 A2983 RMK A01 T01620144  RH  089%=      5-min Rain = 0
KAM1 150926Z 16005KT 16/14 A2983 RMK A01 T01620144  RH  089%=      5-min Rain = 0
KAM1 150927Z 17005KT 16/15 A2983 RMK A01 T01610145  RH  090%=      5-min Rain = 0
KAM1 150928Z 17005KT 16/14 A2983 RMK A01 T01610144  RH  090%=      5-min Rain = 0
KAM1 150929Z 17005KT 16/14 A2983 RMK A01 T01610144  RH  089%=      5-min Rain = 0
KAM1 150930Z 17005KT 16/14 A2983 RMK A01 T01620144  RH  089%=      5-min Rain = 0
KAM1 150931Z 17004KT 16/14 A2983 RMK A01 T01630144  RH  088%=      5-min Rain = 0
KAM1 150932Z 18004KT 16/14 A2983 RMK A01 T01640144  RH  088%=      5-min Rain = 0
KAM1 150933Z 18004KT 16/14 A2983 RMK A01 T01640144  RH  088%=      5-min Rain = 0
KAM1 150934Z 19004KT 17/14 A2983 RMK A01 T01650144  RH  087%=      5-min Rain = 0
KAM1 150935Z 19004KT 17/14 A2983 RMK A01 T01660141  RH  085%=      5-min Rain = 0
KAM1 150936Z 19004KT 17/14 A2983 RMK A01 T01670141  RH  084%=      5-min Rain = 0
KAM1 150937Z 19005KT 17/14 A2983 RMK A01 T01690140  RH  083%=      5-min Rain = 0
KAM1 150938Z 19004KT 17/14 A2983 RMK A01 T01710139  RH  081%=      5-min Rain = 0
KAM1 150939Z 19005KT 17/14 A2982 RMK A01 T01720138  RH  080%=      5-min Rain = 0
KAM1 150940Z 19005KT 17/14 A2982 RMK A01 T01720138  RH  081%=      5-min Rain = 0
KAM1 150941Z 19005KT 17/14 A2982 RMK A01 T01720138  RH  080%=      5-min Rain = 0
KAM1 150942Z 19005KT 17/14 A2982 RMK A01 T01720137  RH  080%=      5-min Rain = 0
KAM1 150943Z 19005KT 17/14 A2983 RMK A01 T01710137  RH  080%=      5-min Rain = 0
KAM1 150944Z 19004KT 17/14 A2983 RMK A01 T01690136  RH  081%=      5-min Rain = 0
KAM1 150945Z 18004KT 17/14 A2983 RMK A01 T01680135  RH  081%=      5-min Rain = 0
KAM1 150946Z 17004KT 17/14 A2982 RMK A01 T01660135  RH  082%=      5-min Rain = 0
KAM1 150947Z 17005KT 16/14 A2982 RMK A01 T01640135  RH  083%=      5-min Rain = 0
KAM1 150948Z 17005KT 16/14 A2982 RMK A01 T01630136  RH  084%=      5-min Rain = 0
KAM1 150949Z 17005KT 16/14 A2982 RMK A01 T01620136  RH  085%=      5-min Rain = 0
KAM1 150950Z 17005KT 16/14 A2982 RMK A01 T01620137  RH  085%=      5-min Rain = 0
KAM1 150951Z 17005KT 16/14 A2982 RMK A01 T01620138  RH  085%=      5-min Rain = 0
KAM1 150952Z 17006KT 16/14 A2982 RMK A01 T01630137  RH  085%=      5-min Rain = 0
KAM1 150953Z 18006KT 16/14 A2982 RMK A01 T01640136  RH  084%=      5-min Rain = 0
KAM1 150954Z 18006KT 16/13 A2982 RMK A01 T01620134  RH  083%=      5-min Rain = 0
KAM1 150955Z 19005KT 16/14 A2982 RMK A01 T01620135  RH  084%=      5-min Rain = 0
KAM1 150956Z 19005KT 16/14 A2982 RMK A01 T01630136  RH  084%=      5-min Rain = 0
KAM1 150957Z 20005KT 16/14 A2982 RMK A01 T01640138  RH  084%=      5-min Rain = 0
KAM1 150958Z 20004KT 17/14 A2983 RMK A01 T01670140  RH  084%=      5-min Rain = 0
KAM1 150959Z 21004KT 17/14 A2983 RMK A01 T01700139  RH  082%=      5-min Rain = 0
KAM1 151000Z 22004KT 17/14 A2983 RMK A01 T01730139  RH  080%=      5-min Rain = 0
KAM1 151001Z 21004KT 17/14 A2983 RMK A01 T01740137  RH  079%=      5-min Rain = 0
KAM1 151002Z 20005KT 17/14 A2982 RMK A01 T01740137  RH  079%=      5-min Rain = 0
KAM1 151003Z 20006KT 18/14 A2982 RMK A01 T01750136  RH  078%=      5-min Rain = 0
KAM1 151004Z 19007KT 17/13 A2982 RMK A01 T01740134  RH  077%=      5-min Rain = 0
KAM1 151005Z 19008KT 17/13 A2982 RMK A01 T01700131  RH  078%=      5-min Rain = 0
KAM1 151006Z 18009KT 16/13 A2982 RMK A01 T01640129  RH  079%=      5-min Rain = 0
KAM1 151007Z 18009KT 16/13 A2982 RMK A01 T01600129  RH  082%=      5-min Rain = 0
KAM1 151008Z 18010KT 16/13 A2982 RMK A01 T01580130  RH  083%=      5-min Rain = 0
KAM1 151009Z 18010KT 16/13 A2982 RMK A01 T01570131  RH  085%=      5-min Rain = 0
KAM1 151010Z 18010KT 16/13 A2982 RMK A01 T01570132  RH  085%=      5-min Rain = 0
KAM1 151011Z 18010KT 16/13 A2982 RMK A01 T01570133  RH  085%=      5-min Rain = 0
KAM1 151012Z 18009KT 16/13 A2982 RMK A01 T01570134  RH  086%=      5-min Rain = 0
KAM1 151013Z 17009KT 16/14 A2982 RMK A01 T01580135  RH  086%=      5-min Rain = 0
KAM1 151014Z 17010KT 16/14 A2981 RMK A01 T01580137  RH  087%=      5-min Rain = 0
KAM1 151015Z 17011KT 16/14 A2981 RMK A01 T01570137  RH  088%=      5-min Rain = 0
KAM1 151016Z 17012KT 16/14 A2981 RMK A01 T01570139  RH  089%=      5-min Rain = 0
KAM1 151017Z 17011KT 16/14 A2981 RMK A01 T01570140  RH  090%=      5-min Rain = 0
KAM1 151018Z 17010KT 16/14 A2981 RMK A01 T01570141  RH  090%=      5-min Rain = 0
KAM1 151019Z 17009KT 16/14 A2981 RMK A01 T01580143  RH  090%=      5-min Rain = 0
KAM1 151020Z 17009KT 16/14 A2981 RMK A01 T01590143  RH  090%=      5-min Rain = 0
KAM1 151021Z 17009KT 16/14 A2981 RMK A01 T01590142  RH  090%=      5-min Rain = 0
KAM1 151022Z 17009KT 16/14 A2981 RMK A01 T01600143  RH  090%=      5-min Rain = 0
KAM1 151023Z 17009KT 16/14 A2981 RMK A01 T01600143  RH  090%=      5-min Rain = 0
KAM1 151024Z 17008KT 16/14 A2981 RMK A01 T01600143  RH  090%=      5-min Rain = 0
KAM1 151025Z 17007KT 16/14 A2981 RMK A01 T01610143  RH  090%=      5-min Rain = 0
KAM1 151026Z 17007KT 16/14 A2981 RMK A01 T01610143  RH  089%=      5-min Rain = 0
KAM1 151027Z 18007KT 16/14 A2981 RMK A01 T01610143  RH  089%=      5-min Rain = 0
KAM1 151028Z 19006KT 16/14 A2981 RMK A01 T01610143  RH  089%=      5-min Rain = 0
KAM1 151029Z 20004KT 16/14 A2981 RMK A01 T01610142  RH  088%=      5-min Rain = 0
KAM1 151030Z 22004KT 16/14 A2981 RMK A01 T01610142  RH  088%=      5-min Rain = 0
KAM1 151031Z 23004KT 16/14 A2982 RMK A01 T01610140  RH  087%=      5-min Rain = 0
KAM1 151032Z 25004KT 16/14 A2982 RMK A01 T01610140  RH  087%=      5-min Rain = 0
KAM1 151033Z 26004KT 16/14 A2982 RMK A01 T01610139  RH  087%=      5-min Rain = 0
KAM1 151034Z 26004KT 16/14 A2982 RMK A01 T01600138  RH  087%=      5-min Rain = 0
KAM1 151035Z 24005KT 16/14 A2982 RMK A01 T01580137  RH  087%=      5-min Rain = 0
KAM1 151036Z 27004KT 16/14 A2982 RMK A01 T01570137  RH  088%=      5-min Rain = 0
KAM1 151037Z 29005KT 16/14 A2983 RMK A01 T01560138  RH  088%=      5-min Rain = 0
KAM1 151038Z 29006KT 16/14 A2983 RMK A01 T01550136  RH  088%=      5-min Rain = 0
KAM1 151039Z 30007KT 15/14 A2983 RMK A01 T01520135  RH  090%=      5-min Rain = 0
KAM1 151040Z 31008KT 15/14 A2983 RMK A01 T01500136  RH  091%=      5-min Rain = 0
KAM1 151041Z 31008KT 15/14 A2983 RMK A01 T01490138  RH  093%=      5-min Rain = 0
KAM1 151042Z 30006KT 15/14 A2983 RMK A01 T01490139  RH  094%=      5-min Rain = 0
KAM1 151043Z 29005KT 15/14 A2983 RMK A01 T01490140  RH  094%=      5-min Rain = 0
KAM1 151044Z 26005KT 15/14 A2982 RMK A01 T01480140  RH  095%=      5-min Rain = 0
KAM1 151045Z 24005KT 15/14 A2982 RMK A01 T01470140  RH  095%=      5-min Rain = 0
KAM1 151046Z 22005KT 15/14 A2982 RMK A01 T01470139  RH  095%=      5-min Rain = 0
KAM1 151047Z 22005KT 15/14 A2982 RMK A01 T01450138  RH  095%=      5-min Rain = 0
KAM1 151048Z 21006KT 14/14 A2982 RMK A01 T01440137  RH  096%=      5-min Rain = 0
KAM1 151049Z 20006KT 14/14 A2982 RMK A01 T01420138  RH  097%=      5-min Rain = 0
KAM1 151050Z 20006KT 14/14 A2982 RMK A01 T01410138  RH  098%=      5-min Rain = 0
KAM1 151051Z 21005KT 14/14 A2982 RMK A01 T01410139  RH  099%=      5-min Rain = 0
KAM1 151052Z 21005KT 14/14 A2982 RMK A01 T01390138  RH  099%=      5-min Rain = 0
KAM1 151053Z 22004KT 14/14 A2982 RMK A01 T01390139  RH  100%=      5-min Rain = 0
KAM1 151054Z 22004KT 14/14 A2982 RMK A01 T01390139  RH  100%=      5-min Rain = 0
KAM1 151055Z 22005KT 14/14 A2982 RMK A01 T01380138  RH  100%=      5-min Rain = 0
KAM1 151056Z 21005KT 14/14 A2982 RMK A01 T01390139  RH  100%=      5-min Rain = 0
KAM1 151057Z 21005KT 14/14 A2982 RMK A01 T01380138  RH  100%=      5-min Rain = 0
KAM1 151058Z 21005KT 14/14 A2982 RMK A01 T01380138  RH  100%=      5-min Rain = 0
KAM1 151059Z 21005KT 14/14 A2982 RMK A01 T01390139  RH  100%=      5-min Rain = 0
KAM1 151100Z 22004KT 14/14 A2983 RMK A01 T01390139  RH  100%=      5-min Rain = 0
KAM1 151101Z 23004KT 14/14 A2983 RMK A01 T01390139  RH  100%=      5-min Rain = 0
KAM1 151102Z 23004KT 14/14 A2983 RMK A01 T01400140  RH  100%=      5-min Rain = 0
KAM1 151103Z 23004KT 14/14 A2983 RMK A01 T01400140  RH  100%=      5-min Rain = 0
KAM1 151104Z 22004KT 14/14 A2982 RMK A01 T01410141  RH  100%=      5-min Rain = 0
KAM1 151105Z 23004KT 14/14 A2982 RMK A01 T01410142  RH  100%=      5-min Rain = 0
KAM1 151106Z 23005KT 14/14 A2982 RMK A01 T01430143  RH  100%=      5-min Rain = 0
KAM1 151107Z 23004KT 14/15 A2982 RMK A01 T01440145  RH  100%=      5-min Rain = 0
KAM1 151108Z 24004KT 15/15 A2983 RMK A01 T01450145  RH  100%=      5-min Rain = 0
KAM1 151109Z 25004KT 15/14 A2983 RMK A01 T01450143  RH  099%=      5-min Rain = 0
KAM1 151110Z 26004KT 14/14 A2983 RMK A01 T01440138  RH  096%=      5-min Rain = 0
KAM1 151111Z 27003KT 14/13 A2983 RMK A01 T01400129  RH  093%=      5-min Rain = 0
KAM1 151112Z 27003KT 14/13 A2983 RMK A01 T01350125  RH  094%=      5-min Rain = 0
KAM1 151113Z 28003KT 13/12 A2983 RMK A01 T01310124  RH  095%=      5-min Rain = 0
KAM1 151114Z 30003KT 13/12 A2983 RMK A01 T01290124  RH  097%=      5-min Rain = 0
KAM1 151115Z 31004KT 13/12 A2983 RMK A01 T01260124  RH  099%=      5-min Rain = 0
KAM1 151116Z 32005KT 12/12 A2983 RMK A01 T01240124  RH  100%=      5-min Rain = 0
KAM1 151117Z 33006KT 12/12 A2984 RMK A01 T01240124  RH  100%=      5-min Rain = 0
KAM1 151118Z 33006KT 12/12 A2984 RMK A01 T01230124  RH  100%=      5-min Rain = 0
KAM1 151119Z 33005KT 12/12 A2984 RMK A01 T01230124  RH  100%=      5-min Rain = 0
KAM1 151120Z 33006KT 12/12 A2984 RMK A01 T01230124  RH  100%=      5-min Rain = 0
KAM1 151121Z 33006KT 12/12 A2984 RMK A01 T01230123  RH  100%=      5-min Rain = 0
KAM1 151122Z 33006KT 12/12 A2984 RMK A01 T01230123  RH  100%=      5-min Rain = 0
KAM1 151123Z 33006KT 12/12 A2984 RMK A01 T01220122  RH  100%=      5-min Rain = 0
KAM1 151124Z 32006KT 12/12 A2983 RMK A01 T01220122  RH  100%=      5-min Rain = 0
KAM1 151125Z 32005KT 12/12 A2983 RMK A01 T01220122  RH  100%=      5-min Rain = 0
KAM1 151126Z 32006KT 12/12 A2984 RMK A01 T01210121  RH  100%=      5-min Rain = 0
KAM1 151127Z 32006KT 12/12 A2984 RMK A01 T01210122  RH  100%=      5-min Rain = 0
KAM1 151128Z 32005KT 12/12 A2983 RMK A01 T01220122  RH  100%=      5-min Rain = 0
KAM1 151129Z 32004KT 12/12 A2983 RMK A01 T01220122  RH  100%=      5-min Rain = 0
KAM1 151130Z 31004KT 12/12 A2983 RMK A01 T01210121  RH  100%=      5-min Rain = 0
KAM1 151131Z 32004KT 12/12 A2983 RMK A01 T01210121  RH  100%=      5-min Rain = 0
KAM1 151132Z 31005KT 12/12 A2983 RMK A01 T01220122  RH  100%=      5-min Rain = 0
KAM1 151133Z 31004KT 12/12 A2983 RMK A01 T01240124  RH  100%=      5-min Rain = 0
KAM1 151134Z 32005KT 13/13 A2983 RMK A01 T01250126  RH  100%=      5-min Rain = 0
KAM1 151135Z 31005KT 13/13 A2983 RMK A01 T01270127  RH  100%=      5-min Rain = 0
KAM1 151136Z 31005KT 13/13 A2983 RMK A01 T01280128  RH  100%=      5-min Rain = 0
KAM1 151137Z 31004KT 13/13 A2983 RMK A01 T01290129  RH  100%=      5-min Rain = 0
KAM1 151138Z 30005KT 13/13 A2983 RMK A01 T01290129  RH  100%=      5-min Rain = 0
KAM1 151139Z 31006KT 13/13 A2983 RMK A01 T01290129  RH  100%=      5-min Rain = 0
KAM1 151140Z 31006KT 13/13 A2983 RMK A01 T01290129  RH  100%=      5-min Rain = 0
KAM1 151141Z 31007KT 13/13 A2984 RMK A01 T01290126  RH  098%=      5-min Rain = 0
KAM1 151142Z 31007KT 13/12 A2984 RMK A01 T01280124  RH  097%=      5-min Rain = 0
KAM1 151143Z 31007KT 13/12 A2984 RMK A01 T01270123  RH  097%=      5-min Rain = 0
KAM1 151144Z 31006KT 13/12 A2984 RMK A01 T01270124  RH  098%=      5-min Rain = 0
KAM1 151145Z 31007KT 13/12 A2984 RMK A01 T01270124  RH  098%=      5-min Rain = 0
KAM1 151146Z 31008KT 13/12 A2984 RMK A01 T01260123  RH  098%=      5-min Rain = 0
KAM1 151147Z 32008KT 13/12 A2984 RMK A01 T01250123  RH  098%=      5-min Rain = 0
KAM1 151148Z 32007KT 13/12 A2984 RMK A01 T01250123  RH  099%=      5-min Rain = 0
KAM1 151149Z 33007KT 13/12 A2984 RMK A01 T01250124  RH  099%=      5-min Rain = 0
KAM1 151150Z 33006KT 13/12 A2984 RMK A01 T01250124  RH  099%=      5-min Rain = 0
KAM1 151151Z 33006KT 13/12 A2984 RMK A01 T01250123  RH  099%=      5-min Rain = 0
KAM1 151152Z 33005KT 13/12 A2984 RMK A01 T01250123  RH  099%=      5-min Rain = 0
KAM1 151153Z 33005KT 13/12 A2984 RMK A01 T01250123  RH  099%=      5-min Rain = 0
KAM1 151154Z 32005KT 13/12 A2984 RMK A01 T01260123  RH  098%=      5-min Rain = 0
KAM1 151155Z 31005KT 13/12 A2984 RMK A01 T01260124  RH  098%=      5-min Rain = 0
KAM1 151156Z 31004KT 13/12 A2984 RMK A01 T01280124  RH  098%=      5-min Rain = 0
KAM1 151157Z 30004KT 13/12 A2984 RMK A01 T01280124  RH  097%=      5-min Rain = 0
KAM1 151158Z 30004KT 13/12 A2984 RMK A01 T01300123  RH  096%=      5-min Rain = 0
KAM1 151159Z 30004KT 13/12 A2984 RMK A01 T01300122  RH  095%=      5-min Rain = 0
KAM1 151200Z 30004KT 13/12 A2984 RMK A01 T01310122  RH  094%=      5-min Rain = 0
KAM1 151201Z 30003KT 13/12 A2984 RMK A01 T01320123  RH  095%=      5-min Rain = 0
KAM1 151202Z 30003KT 13/12 A2984 RMK A01 T01330123  RH  094%=      5-min Rain = 0
KAM1 151203Z 31003KT 13/12 A2984 RMK A01 T01330123  RH  094%=      5-min Rain = 0
KAM1 151204Z 31004KT 13/12 A2984 RMK A01 T01340123  RH  093%=      5-min Rain = 0
KAM1 151205Z 31003KT 13/12 A2984 RMK A01 T01340123  RH  093%=      5-min Rain = 0
KAM1 151206Z 31003KT 14/12 A2984 RMK A01 T01350123  RH  093%=      5-min Rain = 0
KAM1 151207Z 31003KT 14/12 A2984 RMK A01 T01350123  RH  092%=      5-min Rain = 0
KAM1 151208Z 31003KT 14/12 A2984 RMK A01 T01360123  RH  092%=      5-min Rain = 0
KAM1 151209Z 30002KT 14/12 A2984 RMK A01 T01370123  RH  092%=      5-min Rain = 0
KAM1 151210Z 29002KT 14/12 A2984 RMK A01 T01370123  RH  091%=      5-min Rain = 0
KAM1 151211Z 29002KT 14/12 A2983 RMK A01 T01380122  RH  090%=      5-min Rain = 0
KAM1 151212Z 28002KT 14/12 A2984 RMK A01 T01380120  RH  089%=      5-min Rain = 0
KAM1 151213Z 28002KT 14/12 A2984 RMK A01 T01390119  RH  088%=      5-min Rain = 0
KAM1 151214Z 28002KT 14/12 A2984 RMK A01 T01380118  RH  088%=      5-min Rain = 0
KAM1 151215Z 28002KT 14/12 A2983 RMK A01 T01370118  RH  088%=      5-min Rain = 0
KAM1 151216Z 28002KT 14/12 A2983 RMK A01 T01360119  RH  090%=      5-min Rain = 0
KAM1 151217Z 28001KT 14/12 A2983 RMK A01 T01350120  RH  090%=      5-min Rain = 0
KAM1 151218Z 28001KT 14/12 A2983 RMK A01 T01350120  RH  091%=      5-min Rain = 0
KAM1 151219Z 00000KT 14/12 A2983 RMK A01 T01350121  RH  091%=      5-min Rain = 0
KAM1 151220Z 00000KT 14/12 A2983 RMK A01 T01350121  RH  091%=      5-min Rain = 0
KAM1 151221Z 00000KT 14/12 A2983 RMK A01 T01360122  RH  091%=      5-min Rain = 0
KAM1 151222Z 00000KT 14/12 A2984 RMK A01 T01370124  RH  091%=      5-min Rain = 0
KAM1 151223Z 30001KT 14/12 A2984 RMK A01 T01390123  RH  090%=      5-min Rain = 0
KAM1 151224Z 30004KT 14/12 A2985 RMK A01 T01400124  RH  090%=      5-min Rain = 0
KAM1 151225Z 30004KT 14/12 A2985 RMK A01 T01400124  RH  090%=      5-min Rain = 0
KAM1 151226Z 29004KT 14/13 A2985 RMK A01 T01390126  RH  092%=      5-min Rain = 0
KAM1 151227Z 29004KT 14/13 A2985 RMK A01 T01380128  RH  093%=      5-min Rain = 0
KAM1 151228Z 29005KT 14/13 A2985 RMK A01 T01380129  RH  094%=      5-min Rain = 0
KAM1 151229Z 29005KT 14/13 A2985 RMK A01 T01380130  RH  095%=      5-min Rain = 0
KAM1 151230Z 28004KT 14/13 A2985 RMK A01 T01400131  RH  094%=      5-min Rain = 0
KAM1 151231Z 29005KT 14/13 A2984 RMK A01 T01420132  RH  094%=      5-min Rain = 0
KAM1 151232Z 30006KT 14/13 A2985 RMK A01 T01430133  RH  094%=      5-min Rain = 0
KAM1 151233Z 31006KT 15/13 A2985 RMK A01 T01450134  RH  094%=      5-min Rain = 0
KAM1 151234Z 31006KT 15/14 A2985 RMK A01 T01460135  RH  094%=      5-min Rain = 0
KAM1 151235Z 31007KT 15/14 A2985 RMK A01 T01460136  RH  094%=      5-min Rain = 0
KAM1 151236Z 31006KT 15/14 A2985 RMK A01 T01470137  RH  094%=      5-min Rain = 0
KAM1 151237Z 32006KT 15/14 A2984 RMK A01 T01480139  RH  094%=      5-min Rain = 0
KAM1 151238Z 31005KT 15/14 A2984 RMK A01 T01490140  RH  094%=      5-min Rain = 0
KAM1 151239Z 32005KT 15/14 A2984 RMK A01 T01500141  RH  094%=      5-min Rain = 0
KAM1 151240Z 32005KT 15/14 A2984 RMK A01 T01510142  RH  094%=      5-min Rain = 0
KAM1 151241Z 33005KT 15/14 A2985 RMK A01 T01520143  RH  094%=      5-min Rain = 0
KAM1 151242Z 33006KT 15/15 A2985 RMK A01 T01530146  RH  096%=      5-min Rain = 0
KAM1 151243Z 32005KT 15/15 A2984 RMK A01 T01540146  RH  095%=      5-min Rain = 0
KAM1 151244Z 32005KT 16/15 A2985 RMK A01 T01550148  RH  095%=      5-min Rain = 0
KAM1 151245Z 31007KT 16/15 A2985 RMK A01 T01570148  RH  095%=      5-min Rain = 0
KAM1 151246Z 31008KT 16/15 A2985 RMK A01 T01580147  RH  094%=      5-min Rain = 0
KAM1 151247Z 30007KT 16/15 A2985 RMK A01 T01580147  RH  093%=      5-min Rain = 0
KAM1 151248Z 30007KT 16/15 A2985 RMK A01 T01590148  RH  093%=      5-min Rain = 0
KAM1 151249Z 30008KT 16/15 A2985 RMK A01 T01600149  RH  093%=      5-min Rain = 0
KAM1 151250Z 30009KT 16/15 A2985 RMK A01 T01600147  RH  092%=      5-min Rain = 0
KAM1 151251Z 31007KT 16/15 A2985 RMK A01 T01610146  RH  091%=      5-min Rain = 0
KAM1 151252Z 31007KT 16/15 A2985 RMK A01 T01610148  RH  092%=      5-min Rain = 0
KAM1 151253Z 31008KT 16/15 A2985 RMK A01 T01620149  RH  092%=      5-min Rain = 0
KAM1 151254Z 31009KT 16/15 A2985 RMK A01 T01620147  RH  091%=      5-min Rain = 0
KAM1 151255Z 32008KT 16/15 A2985 RMK A01 T01620147  RH  091%=      5-min Rain = 0
KAM1 151256Z 32009KT 16/15 A2985 RMK A01 T01630147  RH  090%=      5-min Rain = 0
KAM1 151257Z 33010KT 16/15 A2985 RMK A01 T01630147  RH  090%=      5-min Rain = 0
KAM1 151258Z 32009KT 16/15 A2985 RMK A01 T01630147  RH  090%=      5-min Rain = 0
KAM1 151259Z 32008KT 16/15 A2985 RMK A01 T01640149  RH  091%=      5-min Rain = 0
KAM1 151300Z 32009KT 16/15 A2985 RMK A01 T01640150  RH  092%=      5-min Rain = 0
KAM1 151301Z 32011KT 16/15 A2985 RMK A01 T01640149  RH  091%=      5-min Rain = 0
KAM1 151302Z 32011KT 16/15 A2985 RMK A01 T01640147  RH  089%=      5-min Rain = 0
KAM1 151303Z 32009KT 16/15 A2985 RMK A01 T01640148  RH  090%=      5-min Rain = 0
KAM1 151304Z 32010KT 17/15 A2985 RMK A01 T01650149  RH  090%=      5-min Rain = 0
KAM1 151305Z 32008KT 17/15 A2985 RMK A01 T01650149  RH  090%=      5-min Rain = 0
KAM1 151306Z 32010G15KT 17/15 A2984 RMK A01 T01660150  RH  091%=      5-min Rain = 0
KAM1 151307Z 32015KT 17/15 A2984 RMK A01 T01660147  RH  088%=      5-min Rain = 0
KAM1 151308Z 32013KT 17/15 A2985 RMK A01 T01660147  RH  088%=      5-min Rain = 0
KAM1 151309Z 33012KT 17/15 A2985 RMK A01 T01670148  RH  089%=      5-min Rain = 0
KAM1 151310Z 32012KT 17/15 A2984 RMK A01 T01670148  RH  089%=      5-min Rain = 0
KAM1 151311Z 33012KT 17/15 A2984 RMK A01 T01680147  RH  088%=      5-min Rain = 0
KAM1 151312Z 32010KT 17/15 A2984 RMK A01 T01680148  RH  088%=      5-min Rain = 0
KAM1 151313Z 32010KT 17/15 A2984 RMK A01 T01690149  RH  088%=      5-min Rain = 0
KAM1 151314Z 33013KT 17/15 A2984 RMK A01 T01700149  RH  087%=      5-min Rain = 0
KAM1 151315Z 33014KT 17/15 A2984 RMK A01 T01700148  RH  087%=      5-min Rain = 0
KAM1 151316Z 32012KT 17/15 A2984 RMK A01 T01710148  RH  087%=      5-min Rain = 0
KAM1 151317Z 32011KT 17/15 A2984 RMK A01 T01710149  RH  087%=      5-min Rain = 0
KAM1 151318Z 32011KT 17/15 A2984 RMK A01 T01710148  RH  086%=      5-min Rain = 0
KAM1 151319Z 32011KT 17/15 A2984 RMK A01 T01720148  RH  086%=      5-min Rain = 0
KAM1 151320Z 32013KT 17/15 A2985 RMK A01 T01730149  RH  086%=      5-min Rain = 0
KAM1 151321Z 32013KT 17/15 A2985 RMK A01 T01730149  RH  086%=      5-min Rain = 0
KAM1 151322Z 32012KT 17/15 A2985 RMK A01 T01730150  RH  086%=      5-min Rain = 0
KAM1 151323Z 32013KT 17/15 A2985 RMK A01 T01740149  RH  085%=      5-min Rain = 0
KAM1 151324Z 32011KT 17/15 A2985 RMK A01 T01740149  RH  085%=      5-min Rain = 0
KAM1 151325Z 31013KT 18/15 A2985 RMK A01 T01750150  RH  085%=      5-min Rain = 0
KAM1 151326Z 31013KT 18/15 A2985 RMK A01 T01750149  RH  085%=      5-min Rain = 0
KAM1 151327Z 31012KT 18/15 A2985 RMK A01 T01750149  RH  085%=      5-min Rain = 0
KAM1 151328Z 32009KT 18/15 A2985 RMK A01 T01750150  RH  085%=      5-min Rain = 0
KAM1 151329Z 32012KT 18/15 A2985 RMK A01 T01760152  RH  086%=      5-min Rain = 0
KAM1 151330Z 32015KT 18/15 A2985 RMK A01 T01770151  RH  084%=      5-min Rain = 0
KAM1 151331Z 32014KT 18/15 A2985 RMK A01 T01770150  RH  084%=      5-min Rain = 0
KAM1 151332Z 32014KT 18/15 A2985 RMK A01 T01770150  RH  084%=      5-min Rain = 0
KAM1 151333Z 32013KT 18/15 A2985 RMK A01 T01770150  RH  084%=      5-min Rain = 0
KAM1 151334Z 32012KT 18/15 A2985 RMK A01 T01780149  RH  084%=      5-min Rain = 0
KAM1 151335Z 32014KT 18/15 A2985 RMK A01 T01780150  RH  084%=      5-min Rain = 0
KAM1 151336Z 32012KT 18/15 A2985 RMK A01 T01780150  RH  084%=      5-min Rain = 0
KAM1 151337Z 32010KT 18/15 A2985 RMK A01 T01790154  RH  085%=      5-min Rain = 0
KAM1 151338Z 33014KT 18/15 A2985 RMK A01 T01810152  RH  083%=      5-min Rain = 0
KAM1 151339Z 33016KT 18/15 A2985 RMK A01 T01810151  RH  082%=      5-min Rain = 0
KAM1 151340Z 33015KT 18/15 A2985 RMK A01 T01810150  RH  082%=      5-min Rain = 0
KAM1 151341Z 32011KT 18/15 A2985 RMK A01 T01800151  RH  083%=      5-min Rain = 0
KAM1 151342Z 33013KT 18/15 A2985 RMK A01 T01810152  RH  083%=      5-min Rain = 0
KAM1 151343Z 32011KT 18/15 A2985 RMK A01 T01820152  RH  083%=      5-min Rain = 0
KAM1 151344Z 32013KT 18/15 A2985 RMK A01 T01820152  RH  082%=      5-min Rain = 0
KAM1 151345Z 31012KT 18/15 A2985 RMK A01 T01830153  RH  083%=      5-min Rain = 0
KAM1 151346Z 32013KT 18/15 A2985 RMK A01 T01840151  RH  082%=      5-min Rain = 0
KAM1 151347Z 32014KT 18/15 A2985 RMK A01 T01840151  RH  081%=      5-min Rain = 0
KAM1 151348Z 32015KT 18/15 A2985 RMK A01 T01840152  RH  082%=      5-min Rain = 0
KAM1 151349Z 33015KT 18/15 A2985 RMK A01 T01840152  RH  082%=      5-min Rain = 0
KAM1 151350Z 33014KT 18/15 A2985 RMK A01 T01840152  RH  081%=      5-min Rain = 0
KAM1 151351Z 33016KT 18/15 A2986 RMK A01 T01840152  RH  081%=      5-min Rain = 0
KAM1 151352Z 33015KT 19/15 A2986 RMK A01 T01850152  RH  081%=      5-min Rain = 0
KAM1 151353Z 34016KT 19/15 A2986 RMK A01 T01850152  RH  081%=      5-min Rain = 0
KAM1 151354Z 33011KT 19/15 A2986 RMK A01 T01850153  RH  081%=      5-min Rain = 0
KAM1 151355Z 32011G16KT 19/16 A2986 RMK A01 T01860156  RH  082%=      5-min Rain = 0
KAM1 151356Z 33012KT 19/16 A2986 RMK A01 T01880156  RH  081%=      5-min Rain = 0
KAM1 151357Z 34013KT 19/16 A2986 RMK A01 T01890155  RH  081%=      5-min Rain = 0
KAM1 151358Z 33011KT 19/16 A2986 RMK A01 T01890155  RH  080%=      5-min Rain = 0
KAM1 151359Z 33013KT 19/16 A2986 RMK A01 T01900156  RH  081%=      5-min Rain = 0
KAM1 151400Z 32011G16KT 19/16 A2986 RMK A01 T01910157  RH  081%=      5-min Rain = 0
KAM1 151401Z 33017KT 19/16 A2986 RMK A01 T01920155  RH  079%=      5-min Rain = 0
KAM1 151402Z 33013KT 19/15 A2986 RMK A01 T01910153  RH  079%=      5-min Rain = 0
KAM1 151403Z 33014KT 19/15 A2986 RMK A01 T01900154  RH  079%=      5-min Rain = 0
KAM1 151404Z 33015KT 19/15 A2986 RMK A01 T01890153  RH  080%=      5-min Rain = 0
KAM1 151405Z 33014KT 19/15 A2986 RMK A01 T01890154  RH  080%=      5-min Rain = 0
KAM1 151406Z 33016KT 19/15 A2986 RMK A01 T01890154  RH  080%=      5-min Rain = 0
KAM1 151407Z 33015KT 19/15 A2986 RMK A01 T01890153  RH  080%=      5-min Rain = 0
KAM1 151408Z 33014KT 19/15 A2986 RMK A01 T01890154  RH  080%=      5-min Rain = 0
KAM1 151409Z 33013KT 19/16 A2986 RMK A01 T01890156  RH  081%=      5-min Rain = 0
KAM1 151410Z 33014KT 19/16 A2986 RMK A01 T01900155  RH  080%=      5-min Rain = 0
KAM1 151411Z 32015KT 19/16 A2986 RMK A01 T01910155  RH  080%=      5-min Rain = 0
KAM1 151412Z 32016KT 19/16 A2986 RMK A01 T01910155  RH  080%=      5-min Rain = 0
KAM1 151413Z 33016KT 19/16 A2986 RMK A01 T01910155  RH  080%=      5-min Rain = 0
KAM1 151414Z 33016KT 19/16 A2987 RMK A01 T01910157  RH  080%=      5-min Rain = 0
KAM1 151415Z 33016G21KT 19/16 A2986 RMK A01 T01920156  RH  079%=      5-min Rain = 0
KAM1 151416Z 33014KT 19/16 A2986 RMK A01 T01920156  RH  080%=      5-min Rain = 0
KAM1 151417Z 32013KT 19/16 A2986 RMK A01 T01920156  RH  080%=      5-min Rain = 0
KAM1 151418Z 32014KT 19/16 A2986 RMK A01 T01920157  RH  080%=      5-min Rain = 0
KAM1 151419Z 33014KT 19/16 A2986 RMK A01 T01930157  RH  080%=      5-min Rain = 0
KAM1 151420Z 33012G18KT 19/16 A2987 RMK A01 T01940159  RH  080%=      5-min Rain = 0
KAM1 151421Z 33016KT 20/16 A2987 RMK A01 T01960158  RH  079%=      5-min Rain = 0
KAM1 151422Z 32015KT 20/16 A2987 RMK A01 T01960157  RH  078%=      5-min Rain = 0
KAM1 151423Z 33014KT 20/16 A2987 RMK A01 T01960157  RH  078%=      5-min Rain = 0
KAM1 151424Z 32012KT 20/16 A2987 RMK A01 T01970159  RH  079%=      5-min Rain = 0
KAM1 151425Z 34011KT 20/16 A2987 RMK A01 T01980159  RH  078%=      5-min Rain = 0
KAM1 151426Z 34012G17KT 20/16 A2987 RMK A01 T01990160  RH  078%=      5-min Rain = 0
KAM1 151427Z 33015KT 20/16 A2987 RMK A01 T02000158  RH  076%=      5-min Rain = 0
KAM1 151428Z 33014KT 20/16 A2987 RMK A01 T02000157  RH  076%=      5-min Rain = 0
KAM1 151429Z 34016KT 20/15 A2987 RMK A01 T02000153  RH  074%=      5-min Rain = 0
KAM1 151430Z 33016KT 20/15 A2987 RMK A01 T02000152  RH  074%=      5-min Rain = 0
KAM1 151431Z 32015KT 20/15 A2987 RMK A01 T02000151  RH  073%=      5-min Rain = 0
KAM1 151432Z 33016KT 20/15 A2987 RMK A01 T02000151  RH  073%=      5-min Rain = 0
KAM1 151433Z 33013KT 20/15 A2987 RMK A01 T01990153  RH  074%=      5-min Rain = 0
KAM1 151434Z 33016KT 20/15 A2987 RMK A01 T02010152  RH  073%=      5-min Rain = 0
KAM1 151435Z 34013KT 20/15 A2987 RMK A01 T02010152  RH  074%=      5-min Rain = 0
KAM1 151436Z 35017KT 20/15 A2987 RMK A01 T02010153  RH  073%=      5-min Rain = 0
KAM1 151437Z 34016KT 20/15 A2987 RMK A01 T02020152  RH  073%=      5-min Rain = 0
KAM1 151438Z 33012KT 20/15 A2988 RMK A01 T02020154  RH  074%=      5-min Rain = 0
KAM1 151439Z 33013KT 20/16 A2988 RMK A01 T02040155  RH  073%=      5-min Rain = 0
KAM1 151440Z 34014KT 21/15 A2988 RMK A01 T02050153  RH  072%=      5-min Rain = 0
KAM1 151441Z 34012G17KT 21/15 A2988 RMK A01 T02050154  RH  073%=      5-min Rain = 0
KAM1 151442Z 34014G19KT 21/15 A2988 RMK A01 T02050153  RH  072%=      5-min Rain = 0
KAM1 151443Z 34011G16KT 21/15 A2988 RMK A01 T02050153  RH  072%=      5-min Rain = 0
KAM1 151444Z 33011KT 21/16 A2988 RMK A01 T02060156  RH  073%=      5-min Rain = 0
KAM1 151445Z 33015KT 21/16 A2988 RMK A01 T02070155  RH  072%=      5-min Rain = 0
KAM1 151446Z 33015KT 21/15 A2988 RMK A01 T02070153  RH  071%=      5-min Rain = 0
KAM1 151447Z 33014KT 21/15 A2988 RMK A01 T02060152  RH  071%=      5-min Rain = 0
KAM1 151448Z 33014KT 21/15 A2988 RMK A01 T02050152  RH  072%=      5-min Rain = 0
KAM1 151449Z 33015KT 21/15 A2988 RMK A01 T02050153  RH  072%=      5-min Rain = 0
KAM1 151450Z 33013KT 21/15 A2988 RMK A01 T02060153  RH  072%=      5-min Rain = 0
KAM1 151451Z 33015KT 21/15 A2988 RMK A01 T02060154  RH  072%=      5-min Rain = 0
KAM1 151452Z 34015KT 21/15 A2988 RMK A01 T02070153  RH  071%=      5-min Rain = 0
KAM1 151453Z 33015KT 21/15 A2988 RMK A01 T02060153  RH  071%=      5-min Rain = 0
KAM1 151454Z 33016KT 21/15 A2988 RMK A01 T02070153  RH  071%=      5-min Rain = 0
KAM1 151455Z 34017KT 21/15 A2988 RMK A01 T02060152  RH  071%=      5-min Rain = 0
KAM1 151456Z 34016KT 21/15 A2988 RMK A01 T02070153  RH  072%=      5-min Rain = 0
KAM1 151457Z 33016KT 21/15 A2988 RMK A01 T02070154  RH  071%=      5-min Rain = 0
KAM1 151458Z 34014KT 21/15 A2988 RMK A01 T02080154  RH  071%=      5-min Rain = 0
KAM1 151459Z 34013KT 21/16 A2988 RMK A01 T02090157  RH  072%=      5-min Rain = 0
KAM1 151500Z 34013KT 21/16 A2988 RMK A01 T02110156  RH  071%=      5-min Rain = 0
KAM1 151501Z 33015KT 21/16 A2988 RMK A01 T02110156  RH  070%=      5-min Rain = 0
KAM1 151502Z 33013KT 21/16 A2988 RMK A01 T02120156  RH  070%=      5-min Rain = 0
KAM1 151503Z 33015KT 21/16 A2988 RMK A01 T02130156  RH  070%=      5-min Rain = 0
KAM1 151504Z 33014G19KT 21/16 A2988 RMK A01 T02130157  RH  070%=      5-min Rain = 0
KAM1 151505Z 33015KT 21/16 A2988 RMK A01 T02140155  RH  069%=      5-min Rain = 0
KAM1 151506Z 33016KT 21/16 A2988 RMK A01 T02130155  RH  069%=      5-min Rain = 0
KAM1 151507Z 34014KT 21/16 A2988 RMK A01 T02130155  RH  070%=      5-min Rain = 0
KAM1 151508Z 34014KT 21/16 A2988 RMK A01 T02130157  RH  070%=      5-min Rain = 0
KAM1 151509Z 34016KT 21/16 A2988 RMK A01 T02140157  RH  070%=      5-min Rain = 0
KAM1 151510Z 33017KT 22/16 A2988 RMK A01 T02150155  RH  069%=      5-min Rain = 0
KAM1 151511Z 34015KT 21/16 A2989 RMK A01 T02140156  RH  069%=      5-min Rain = 0
KAM1 151512Z 33014G19KT 21/16 A2989 RMK A01 T02140156  RH  069%=      5-min Rain = 0
KAM1 151513Z 33014KT 22/16 A2989 RMK A01 T02150157  RH  070%=      5-min Rain = 0
KAM1 151514Z 33013KT 22/16 A2989 RMK A01 T02160158  RH  070%=      5-min Rain = 0
KAM1 151515Z 33012KT 22/16 A2989 RMK A01 T02180158  RH  069%=      5-min Rain = 0
KAM1 151516Z 33015KT 22/16 A2989 RMK A01 T02180157  RH  068%=      5-min Rain = 0
KAM1 151517Z 33015KT 22/16 A2989 RMK A01 T02180157  RH  068%=      5-min Rain = 0
KAM1 151518Z 32016KT 22/16 A2989 RMK A01 T02170157  RH  068%=      5-min Rain = 0
KAM1 151519Z 33013KT 22/16 A2989 RMK A01 T02170157  RH  069%=      5-min Rain = 0
KAM1 151520Z 33017KT 22/16 A2989 RMK A01 T02170157  RH  069%=      5-min Rain = 0
KAM1 151521Z 33018KT 22/16 A2989 RMK A01 T02170156  RH  068%=      5-min Rain = 0
KAM1 151522Z 34015KT 22/16 A2989 RMK A01 T02170156  RH  068%=      5-min Rain = 0
KAM1 151523Z 34017KT 22/16 A2989 RMK A01 T02160157  RH  069%=      5-min Rain = 0
KAM1 151524Z 34016KT 22/16 A2989 RMK A01 T02160156  RH  069%=      5-min Rain = 0
KAM1 151525Z 34018KT 22/16 A2989 RMK A01 T02170157  RH  069%=      5-min Rain = 0
KAM1 151526Z 34017KT 22/16 A2989 RMK A01 T02180156  RH  068%=      5-min Rain = 0
KAM1 151527Z 33013KT 22/16 A2989 RMK A01 T02180158  RH  069%=      5-min Rain = 0
KAM1 151528Z 34014KT 22/16 A2989 RMK A01 T02200160  RH  069%=      5-min Rain = 0
KAM1 151529Z 34014KT 22/16 A2989 RMK A01 T02220160  RH  068%=      5-min Rain = 0
KAM1 151530Z 34015KT 22/16 A2989 RMK A01 T02220159  RH  068%=      5-min Rain = 0
KAM1 151531Z 34016KT 22/16 A2989 RMK A01 T02220159  RH  068%=      5-min Rain = 0
KAM1 151532Z 33012KT 22/16 A2989 RMK A01 T02220161  RH  069%=      5-min Rain = 0
KAM1 151533Z 33011G16KT 22/16 A2989 RMK A01 T02240162  RH  068%=      5-min Rain = 0
KAM1 151534Z 33013KT 22/16 A2989 RMK A01 T02240161  RH  067%=      5-min Rain = 0
KAM1 151535Z 34013KT 23/16 A2989 RMK A01 T02250163  RH  068%=      5-min Rain = 0
KAM1 151536Z 34013KT 23/16 A2989 RMK A01 T02270163  RH  067%=      5-min Rain = 0
KAM1 151537Z 34018KT 23/16 A2989 RMK A01 T02280162  RH  066%=      5-min Rain = 0
KAM1 151538Z 34014KT 23/16 A2989 RMK A01 T02270161  RH  066%=      5-min Rain = 0
KAM1 151539Z 34014KT 23/16 A2989 RMK A01 T02270162  RH  067%=      5-min Rain = 0
KAM1 151540Z 33014KT 23/16 A2989 RMK A01 T02270161  RH  066%=      5-min Rain = 0
KAM1 151541Z 34014KT 23/16 A2989 RMK A01 T02270163  RH  067%=      5-min Rain = 0
KAM1 151542Z 34014G19KT 23/16 A2989 RMK A01 T02270163  RH  067%=      5-min Rain = 0
KAM1 151543Z 33013KT 23/16 A2989 RMK A01 T02270163  RH  067%=      5-min Rain = 0
KAM1 151544Z 33011G18KT 23/17 A2989 RMK A01 T02280165  RH  067%=      5-min Rain = 0
KAM1 151545Z 33014KT 23/16 A2989 RMK A01 T02300164  RH  066%=      5-min Rain = 0
KAM1 151546Z 33015KT 23/17 A2989 RMK A01 T02300165  RH  066%=      5-min Rain = 0
KAM1 151547Z 34016KT 23/16 A2989 RMK A01 T02320164  RH  066%=      5-min Rain = 0
KAM1 151548Z 34014G19KT 23/16 A2989 RMK A01 T02320164  RH  066%=      5-min Rain = 0
KAM1 151549Z 34012KT 23/17 A2989 RMK A01 T02320165  RH  066%=      5-min Rain = 0
KAM1 151550Z 34015KT 23/17 A2989 RMK A01 T02320165  RH  066%=      5-min Rain = 0
KAM1 151551Z 34013KT 23/17 A2989 RMK A01 T02320166  RH  066%=      5-min Rain = 0
KAM1 151552Z 34013G18KT 23/17 A2989 RMK A01 T02320166  RH  066%=      5-min Rain = 0
KAM1 151553Z 33016KT 23/17 A2989 RMK A01 T02330165  RH  065%=      5-min Rain = 0
KAM1 151554Z 33014KT 23/17 A2989 RMK A01 T02330165  RH  066%=      5-min Rain = 0
KAM1 151555Z 33014G19KT 23/17 A2989 RMK A01 T02330165  RH  066%=      5-min Rain = 0
KAM1 151556Z 33015KT 23/17 A2989 RMK A01 T02330165  RH  065%=      5-min Rain = 0
KAM1 151557Z 34016KT 24/17 A2989 RMK A01 T02350167  RH  066%=      5-min Rain = 0
KAM1 151558Z 34015KT 24/17 A2989 RMK A01 T02360166  RH  065%=      5-min Rain = 0
KAM1 151559Z 34014KT 24/17 A2989 RMK A01 T02360167  RH  065%=      5-min Rain = 0
KAM1 151600Z 33017KT 24/17 A2989 RMK A01 T02360165  RH  064%=      5-min Rain = 0
KAM1 151601Z 33015KT 24/17 A2989 RMK A01 T02370166  RH  065%=      5-min Rain = 0
KAM1 151602Z 33017KT 24/17 A2989 RMK A01 T02370166  RH  064%=      5-min Rain = 0
KAM1 151603Z 33015G20KT 24/17 A2989 RMK A01 T02370165  RH  064%=      5-min Rain = 0
KAM1 151604Z 34014KT 24/17 A2989 RMK A01 T02370165  RH  064%=      5-min Rain = 0
KAM1 151605Z 33017KT 24/17 A2989 RMK A01 T02370166  RH  064%=      5-min Rain = 0
KAM1 151606Z 34013KT 24/17 A2989 RMK A01 T02380167  RH  064%=      5-min Rain = 0
KAM1 151607Z 35013KT 24/17 A299 RMK A01 T02400167  RH  064%=      5-min Rain = 0
KAM1 151608Z 34013G18KT 24/17 A299 RMK A01 T02400168  RH  064%=      5-min Rain = 0
KAM1 151609Z 33016KT 24/17 A299 RMK A01 T02400165  RH  063%=      5-min Rain = 0
KAM1 151610Z 35013KT 24/17 A299 RMK A01 T02390166  RH  064%=      5-min Rain = 0
KAM1 151611Z 35012KT 24/17 A299 RMK A01 T02400168  RH  064%=      5-min Rain = 0
KAM1 151612Z 35013KT 24/17 A299 RMK A01 T02420169  RH  064%=      5-min Rain = 0
KAM1 151613Z 35015KT 24/17 A299 RMK A01 T02440168  RH  062%=      5-min Rain = 0
KAM1 151614Z 33013KT 25/17 A299 RMK A01 T02450170  RH  063%=      5-min Rain = 0
KAM1 151615Z 34013KT 24/17 A299 RMK A01 T02440168  RH  062%=      5-min Rain = 0
KAM1 151616Z 34014KT 24/17 A299 RMK A01 T02430168  RH  063%=      5-min Rain = 0
KAM1 151617Z 33013KT 24/17 A299 RMK A01 T02430167  RH  062%=      5-min Rain = 0
KAM1 151618Z 33015KT 24/17 A299 RMK A01 T02430167  RH  063%=      5-min Rain = 0
KAM1 151619Z 33014KT 24/17 A299 RMK A01 T02430166  RH  062%=      5-min Rain = 0
KAM1 151620Z 33013KT 24/17 A299 RMK A01 T02430168  RH  063%=      5-min Rain = 0
KAM1 151621Z 34015KT 24/17 A299 RMK A01 T02440168  RH  062%=      5-min Rain = 0
KAM1 151622Z 33013KT 25/17 A299 RMK A01 T02450168  RH  062%=      5-min Rain = 0
KAM1 151623Z 34012KT 25/17 A299 RMK A01 T02450168  RH  062%=      5-min Rain = 0
KAM1 151624Z 34012KT 25/17 A299 RMK A01 T02460171  RH  063%=      5-min Rain = 0
KAM1 151625Z 34014KT 25/17 A299 RMK A01 T02480167  RH  061%=      5-min Rain = 0
KAM1 151626Z 33012KT 25/17 A299 RMK A01 T02460169  RH  062%=      5-min Rain = 0
KAM1 151627Z 33013KT 25/17 A299 RMK A01 T02470169  RH  062%=      5-min Rain = 0
KAM1 151628Z 33012KT 25/17 A299 RMK A01 T02480171  RH  062%=      5-min Rain = 0
KAM1 151629Z 33014KT 25/17 A299 RMK A01 T02480168  RH  061%=      5-min Rain = 0
KAM1 151630Z 35012KT 25/17 A299 RMK A01 T02470169  RH  062%=      5-min Rain = 0
KAM1 151631Z 36010KT 25/17 A299 RMK A01 T02480170  RH  062%=      5-min Rain = 0
KAM1 151632Z 35014KT 25/17 A299 RMK A01 T02480171  RH  062%=      5-min Rain = 0
KAM1 151633Z 35012KT 25/17 A299 RMK A01 T02500171  RH  061%=      5-min Rain = 0
KAM1 151634Z 34011KT 25/17 A299 RMK A01 T02510170  RH  061%=      5-min Rain = 0
KAM1 151635Z 33010KT 25/17 A299 RMK A01 T02510171  RH  061%=      5-min Rain = 0
KAM1 151636Z 33011KT 25/17 A299 RMK A01 T02510170  RH  061%=      5-min Rain = 0
KAM1 151637Z 35012KT 25/17 A299 RMK A01 T02500171  RH  062%=      5-min Rain = 0
KAM1 151638Z 34015KT 25/17 A299 RMK A01 T02500168  RH  060%=      5-min Rain = 0
KAM1 151639Z 33014KT 25/17 A299 RMK A01 T02490168  RH  061%=      5-min Rain = 0
KAM1 151640Z 33012KT 25/17 A299 RMK A01 T02490168  RH  061%=      5-min Rain = 0
KAM1 151641Z 34012KT 25/17 A299 RMK A01 T02490170  RH  062%=      5-min Rain = 0
KAM1 151642Z 33009KT 25/17 A299 RMK A01 T02500172  RH  062%=      5-min Rain = 0
KAM1 151643Z 33008KT 25/17 A299 RMK A01 T02510168  RH  060%=      5-min Rain = 0
KAM1 151644Z 33010KT 25/17 A299 RMK A01 T02510173  RH  062%=      5-min Rain = 0
KAM1 151645Z 36009KT 25/17 A299 RMK A01 T02520171  RH  061%=      5-min Rain = 0
KAM1 151646Z 01011KT 25/17 A299 RMK A01 T02520170  RH  060%=      5-min Rain = 0
KAM1 151647Z 36011KT 25/17 A299 RMK A01 T02520170  RH  060%=      5-min Rain = 0
KAM1 151648Z 34012KT 25/17 A299 RMK A01 T02520171  RH  061%=      5-min Rain = 0
KAM1 151649Z 35010KT 25/17 A299 RMK A01 T02510168  RH  060%=      5-min Rain = 0
KAM1 151650Z 34010KT 25/17 A299 RMK A01 T02490168  RH  061%=      5-min Rain = 0
KAM1 151651Z 35011KT 25/17 A299 RMK A01 T02490172  RH  062%=      5-min Rain = 0
KAM1 151652Z 35013KT 25/17 A2991 RMK A01 T02510172  RH  061%=      5-min Rain = 0
KAM1 151653Z 36014KT 25/17 A2991 RMK A01 T02530173  RH  061%=      5-min Rain = 0
KAM1 151654Z 00013KT 26/17 A2991 RMK A01 T02550172  RH  060%=      5-min Rain = 0
KAM1 151655Z 00012KT 25/17 A2991 RMK A01 T02540169  RH  059%=      5-min Rain = 0
KAM1 151656Z 36011KT 25/17 A2991 RMK A01 T02520172  RH  061%=      5-min Rain = 0
KAM1 151657Z 00011KT 25/17 A2991 RMK A01 T02530171  RH  061%=      5-min Rain = 0
KAM1 151658Z 34012KT 25/18 A2991 RMK A01 T02540176  RH  062%=      5-min Rain = 0
KAM1 151659Z 34012KT 26/17 A2991 RMK A01 T02570173  RH  060%=      5-min Rain = 0
KAM1 151700Z 35010KT 26/18 A2991 RMK A01 T02580177  RH  061%=      5-min Rain = 0
KAM1 151701Z 35010KT 26/17 A2991 RMK A01 T02590173  RH  059%=      5-min Rain = 0
KAM1 151702Z 33009KT 26/18 A2991 RMK A01 T02580175  RH  060%=      5-min Rain = 0
KAM1 151703Z 36011KT 26/18 A2991 RMK A01 T02580177  RH  061%=      5-min Rain = 0
KAM1 151704Z 00013KT 26/18 A2991 RMK A01 T02590175  RH  060%=      5-min Rain = 0
KAM1 151705Z 00009KT 26/17 A2991 RMK A01 T02580174  RH  060%=      5-min Rain = 0
KAM1 151706Z 35010KT 26/18 A2991 RMK A01 T02580175  RH  060%=      5-min Rain = 0
KAM1 151707Z 00007KT 26/17 A2991 RMK A01 T02570173  RH  060%=      5-min Rain = 0
KAM1 151708Z 36009KT 26/18 A2991 RMK A01 T02580177  RH  061%=      5-min Rain = 0
KAM1 151709Z 34009KT 26/18 A2991 RMK A01 T02600179  RH  061%=      5-min Rain = 0
KAM1 151710Z 34011KT 26/18 A2991 RMK A01 T02620177  RH  059%=      5-min Rain = 0
KAM1 151711Z 35010KT 26/18 A2991 RMK A01 T02630178  RH  059%=      5-min Rain = 0
KAM1 151712Z 35008KT 26/18 A2991 RMK A01 T02630175  RH  058%=      5-min Rain = 0
KAM1 151713Z 35010KT 26/18 A2991 RMK A01 T02610177  RH  060%=      5-min Rain = 0
KAM1 151714Z 00010KT 26/18 A2991 RMK A01 T02610179  RH  060%=      5-min Rain = 0
KAM1 151715Z 00013KT 26/18 A2991 RMK A01 T02630178  RH  060%=      5-min Rain = 0
KAM1 151716Z 01012KT 26/18 A2991 RMK A01 T02620177  RH  059%=      5-min Rain = 0
KAM1 151717Z 01011KT 26/18 A2991 RMK A01 T02610177  RH  059%=      5-min Rain = 0
KAM1 151718Z 36012KT 26/18 A2991 RMK A01 T02610178  RH  060%=      5-min Rain = 0
KAM1 151719Z 35014KT 26/18 A2991 RMK A01 T02620175  RH  059%=      5-min Rain = 0
KAM1 151720Z 35012G17KT 26/18 A2991 RMK A01 T02610175  RH  059%=      5-min Rain = 0
KAM1 151721Z 36011KT 26/18 A2991 RMK A01 T02610175  RH  059%=      5-min Rain = 0
KAM1 151722Z 35010KT 26/18 A2991 RMK A01 T02610178  RH  060%=      5-min Rain = 0
KAM1 151723Z 36014KT 26/18 A2991 RMK A01 T02630179  RH  060%=      5-min Rain = 0
KAM1 151724Z 36013KT 26/18 A2991 RMK A01 T02640177  RH  059%=      5-min Rain = 0
KAM1 151725Z 35011KT 26/18 A2991 RMK A01 T02640176  RH  059%=      5-min Rain = 0
KAM1 151726Z 36012G17KT 26/18 A2991 RMK A01 T02620175  RH  059%=      5-min Rain = 0
KAM1 151727Z 00013KT 26/18 A2991 RMK A01 T02610176  RH  059%=      5-min Rain = 0
KAM1 151728Z 01015KT 26/18 A2991 RMK A01 T02610175  RH  059%=      5-min Rain = 0
KAM1 151729Z 36012KT 26/18 A2991 RMK A01 T02610176  RH  059%=      5-min Rain = 0
KAM1 151730Z 01014KT 26/18 A2991 RMK A01 T02610176  RH  059%=      5-min Rain = 0
KAM1 151731Z 01014KT 26/18 A2991 RMK A01 T02600175  RH  059%=      5-min Rain = 0
KAM1 151732Z 01013KT 26/17 A2991 RMK A01 T02590174  RH  059%=      5-min Rain = 0
KAM1 151733Z 01011KT 26/18 A2991 RMK A01 T02570175  RH  060%=      5-min Rain = 0
KAM1 151734Z 00014KT 26/18 A2991 RMK A01 T02570175  RH  060%=      5-min Rain = 0
KAM1 151735Z 36013KT 26/18 A299 RMK A01 T02570176  RH  061%=      5-min Rain = 0
KAM1 151736Z 00011KT 26/18 A299 RMK A01 T02590180  RH  062%=      5-min Rain = 0
KAM1 151737Z 00013KT 26/18 A299 RMK A01 T02620179  RH  060%=      5-min Rain = 0
KAM1 151738Z 01011KT 26/18 A299 RMK A01 T02620179  RH  060%=      5-min Rain = 0
KAM1 151739Z 02014KT 26/18 A299 RMK A01 T02620179  RH  060%=      5-min Rain = 0
KAM1 151740Z 02015KT 26/18 A299 RMK A01 T02620176  RH  059%=      5-min Rain = 0
KAM1 151741Z 01013KT 26/18 A299 RMK A01 T02610177  RH  060%=      5-min Rain = 0
KAM1 151742Z 01016KT 26/18 A299 RMK A01 T02610177  RH  060%=      5-min Rain = 0
KAM1 151743Z 01015KT 26/17 A299 RMK A01 T02610174  RH  059%=      5-min Rain = 0
KAM1 151744Z 02013G18KT 26/18 A299 RMK A01 T02600175  RH  059%=      5-min Rain = 0
KAM1 151745Z 02015KT 26/18 A299 RMK A01 T02600175  RH  060%=      5-min Rain = 0
KAM1 151746Z 02008KT 26/18 A299 RMK A01 T02620179  RH  060%=      5-min Rain = 0
KAM1 151747Z 01008G13KT 27/18 A299 RMK A01 T02660179  RH  059%=      5-min Rain = 0
KAM1 151748Z 00012KT 27/18 A299 RMK A01 T02670179  RH  059%=      5-min Rain = 0
KAM1 151749Z 01014KT 27/18 A299 RMK A01 T02670182  RH  059%=      5-min Rain = 0
KAM1 151750Z 02015KT 27/18 A2991 RMK A01 T02670179  RH  058%=      5-min Rain = 0
KAM1 151751Z 02012KT 27/18 A2991 RMK A01 T02670179  RH  059%=      5-min Rain = 0
KAM1 151752Z 00008KT 27/18 A2991 RMK A01 T02660178  RH  059%=      5-min Rain = 0
KAM1 151753Z 36010KT 27/18 A2991 RMK A01 T02670182  RH  060%=      5-min Rain = 0
KAM1 151754Z 36011KT 27/18 A2991 RMK A01 T02690179  RH  058%=      5-min Rain = 0
KAM1 151755Z 35011KT 27/18 A2991 RMK A01 T02680181  RH  059%=      5-min Rain = 0
KAM1 151756Z 34009KT 27/18 A2991 RMK A01 T02690183  RH  059%=      5-min Rain = 0
KAM1 151757Z 34013KT 27/18 A2991 RMK A01 T02710180  RH  058%=      5-min Rain = 0
KAM1 151758Z 34014KT 27/18 A2991 RMK A01 T02690179  RH  057%=      5-min Rain = 0
KAM1 151759Z 34012KT 27/18 A2991 RMK A01 T02660177  RH  058%=      5-min Rain = 0
KAM1 151800Z 00010KT 27/18 A2991 RMK A01 T02650179  RH  059%=      5-min Rain = 0
KAM1 151801Z 02012G17KT 27/18 A2991 RMK A01 T02670179  RH  058%=      5-min Rain = 0
KAM1 151802Z 34012KT 27/18 A2991 RMK A01 T02670180  RH  059%=      5-min Rain = 0
KAM1 151803Z 35012KT 27/18 A2991 RMK A01 T02670177  RH  057%=      5-min Rain = 0
KAM1 151804Z 35012KT 27/18 A2991 RMK A01 T02660178  RH  058%=      5-min Rain = 0
KAM1 151805Z 02011KT 27/18 A2991 RMK A01 T02670177  RH  058%=      5-min Rain = 0
KAM1 151806Z 01008G14KT 27/18 A2991 RMK A01 T02670175  RH  057%=      5-min Rain = 0
KAM1 151807Z 36013KT 27/18 A2991 RMK A01 T02670178  RH  058%=      5-min Rain = 0
KAM1 151808Z 00011KT 27/18 A2991 RMK A01 T02680179  RH  058%=      5-min Rain = 0
KAM1 151809Z 00009KT 27/18 A2991 RMK A01 T02690180  RH  058%=      5-min Rain = 0
KAM1 151810Z 35008KT 27/18 A2991 RMK A01 T02670177  RH  058%=      5-min Rain = 0
KAM1 151811Z 35011KT 27/18 A2991 RMK A01 T02660179  RH  059%=      5-min Rain = 0
KAM1 151812Z 36008KT 27/18 A2991 RMK A01 T02650179  RH  059%=      5-min Rain = 0
KAM1 151813Z 35008KT 27/18 A2991 RMK A01 T02660183  RH  060%=      5-min Rain = 0
KAM1 151814Z 00008KT 27/18 A2991 RMK A01 T02680182  RH  059%=      5-min Rain = 0
KAM1 151815Z 35012KT 27/18 A2991 RMK A01 T02700183  RH  059%=      5-min Rain = 0
KAM1 151816Z 35010G15KT 27/18 A2991 RMK A01 T02710180  RH  058%=      5-min Rain = 0
KAM1 151817Z 35011KT 27/18 A2991 RMK A01 T02690180  RH  058%=      5-min Rain = 0
KAM1 151818Z 34012KT 27/18 A2991 RMK A01 T02690182  RH  059%=      5-min Rain = 0
KAM1 151819Z 35015KT 27/18 A2991 RMK A01 T02700182  RH  058%=      5-min Rain = 0
KAM1 151820Z 00014KT 27/18 A2991 RMK A01 T02710179  RH  057%=      5-min Rain = 0
KAM1 151821Z 00014KT 27/18 A2991 RMK A01 T02710179  RH  057%=      5-min Rain = 0
KAM1 151822Z 35010KT 27/18 A2991 RMK A01 T02700179  RH  058%=      5-min Rain = 0
KAM1 151823Z 35011KT 27/18 A2991 RMK A01 T02700180  RH  058%=      5-min Rain = 0
KAM1 151824Z 35010KT 27/18 A2991 RMK A01 T02700182  RH  059%=      5-min Rain = 0
KAM1 151825Z 36010KT 27/18 A2991 RMK A01 T02720183  RH  058%=      5-min Rain = 0
KAM1 151826Z 36011KT 27/19 A2991 RMK A01 T02740185  RH  058%=      5-min Rain = 0
KAM1 151827Z 01012KT 28/18 A2991 RMK A01 T02770182  RH  056%=      5-min Rain = 0
KAM1 151828Z 01013KT 28/18 A2991 RMK A01 T02770178  RH  055%=      5-min Rain = 0
KAM1 151829Z 01012KT 27/18 A2991 RMK A01 T02740178  RH  056%=      5-min Rain = 0
KAM1 151830Z 36010KT 27/18 A2991 RMK A01 T02730178  RH  056%=      5-min Rain = 0
KAM1 151831Z 35012KT 27/18 A2991 RMK A01 T02730180  RH  057%=      5-min Rain = 0
KAM1 151832Z 35009KT 27/18 A2991 RMK A01 T02730180  RH  057%=      5-min Rain = 0
KAM1 151833Z 34012KT 27/18 A2991 RMK A01 T02730183  RH  058%=      5-min Rain = 0
KAM1 151834Z 33008KT 28/18 A2991 RMK A01 T02750183  RH  057%=      5-min Rain = 0
KAM1 151835Z 36011KT 28/18 A2992 RMK A01 T02770183  RH  057%=      5-min Rain = 0
KAM1 151836Z 00010KT 28/18 A2992 RMK A01 T02770181  RH  056%=      5-min Rain = 0
KAM1 151837Z 01010KT 28/18 A2992 RMK A01 T02770180  RH  055%=      5-min Rain = 0
KAM1 151838Z 36008KT 28/18 A2992 RMK A01 T02750175  RH  054%=      5-min Rain = 0
KAM1 151839Z 36009KT 27/18 A2992 RMK A01 T02730181  RH  057%=      5-min Rain = 0
KAM1 151840Z 36007KT 28/18 A2991 RMK A01 T02750179  RH  056%=      5-min Rain = 0
KAM1 151841Z 35008KT 28/18 A2991 RMK A01 T02760182  RH  057%=      5-min Rain = 0
KAM1 151842Z 00012KT 28/18 A2991 RMK A01 T02770181  RH  056%=      5-min Rain = 0
KAM1 151843Z 01012KT 28/18 A2991 RMK A01 T02770180  RH  056%=      5-min Rain = 0
KAM1 151844Z 36010KT 28/18 A2991 RMK A01 T02780181  RH  055%=      5-min Rain = 0
KAM1 151845Z 00008KT 28/18 A2991 RMK A01 T02780181  RH  056%=      5-min Rain = 0
KAM1 151846Z 35007KT 28/18 A2991 RMK A01 T02780182  RH  056%=      5-min Rain = 0
KAM1 151847Z 35007KT 28/18 A2991 RMK A01 T02780182  RH  056%=      5-min Rain = 0
KAM1 151848Z 00009KT 28/19 A2991 RMK A01 T02780185  RH  057%=      5-min Rain = 0
KAM1 151849Z 01009KT 28/19 A2991 RMK A01 T02810185  RH  056%=      5-min Rain = 0
KAM1 151850Z 01010KT 28/18 A2991 RMK A01 T02830181  RH  054%=      5-min Rain = 0
KAM1 151851Z 03008KT 28/18 A2991 RMK A01 T02810179  RH  054%=      5-min Rain = 0
KAM1 151852Z 00008KT 28/18 A2991 RMK A01 T02770181  RH  056%=      5-min Rain = 0
KAM1 151853Z 00012G18KT 28/18 A2991 RMK A01 T02770179  RH  055%=      5-min Rain = 0
KAM1 151854Z 02013KT 28/18 A2991 RMK A01 T02750179  RH  056%=      5-min Rain = 0
KAM1 151855Z 02013KT 27/18 A2991 RMK A01 T02740179  RH  056%=      5-min Rain = 0
KAM1 151856Z 01012KT 27/18 A2991 RMK A01 T02740180  RH  056%=      5-min Rain = 0
KAM1 151857Z 00010KT 27/18 A2991 RMK A01 T02740181  RH  057%=      5-min Rain = 0
KAM1 151858Z 36012KT 28/18 A2991 RMK A01 T02760180  RH  056%=      5-min Rain = 0
KAM1 151859Z 00009KT 28/18 A2991 RMK A01 T02760179  RH  056%=      5-min Rain = 0
KAM1 151900Z 00011KT 28/18 A2991 RMK A01 T02770183  RH  057%=      5-min Rain = 0
KAM1 151901Z 00012KT 28/18 A2991 RMK A01 T02790181  RH  055%=      5-min Rain = 0
KAM1 151902Z 00012KT 28/18 A2991 RMK A01 T02790179  RH  054%=      5-min Rain = 0
KAM1 151903Z 00012KT 28/18 A2991 RMK A01 T02780179  RH  055%=      5-min Rain = 0
KAM1 151904Z 01010KT 28/18 A2991 RMK A01 T02770178  RH  055%=      5-min Rain = 0
KAM1 151905Z 36009KT 28/18 A2991 RMK A01 T02760179  RH  055%=      5-min Rain = 0
KAM1 151906Z 35012KT 28/18 A2991 RMK A01 T02750180  RH  056%=      5-min Rain = 0
KAM1 151907Z 34012KT 28/18 A2991 RMK A01 T02770179  RH  055%=      5-min Rain = 0
KAM1 151908Z 36011KT 28/18 A2991 RMK A01 T02770183  RH  056%=      5-min Rain = 0
KAM1 151909Z 35008KT 28/18 A2991 RMK A01 T02780180  RH  055%=      5-min Rain = 0
KAM1 151910Z 02013KT 28/19 A2991 RMK A01 T02770185  RH  057%=      5-min Rain = 0
KAM1 151911Z 36012KT 28/18 A2991 RMK A01 T02770184  RH  057%=      5-min Rain = 0
KAM1 151912Z 35011KT 28/19 A2991 RMK A01 T02780185  RH  057%=      5-min Rain = 0
KAM1 151913Z 35008KT 28/19 A2991 RMK A01 T02790185  RH  057%=      5-min Rain = 0
KAM1 151914Z 01010KT 28/19 A2991 RMK A01 T02800186  RH  057%=      5-min Rain = 0
KAM1 151915Z 01012KT 28/19 A2991 RMK A01 T02810185  RH  056%=      5-min Rain = 0
KAM1 151916Z 36014KT 28/19 A2991 RMK A01 T02820187  RH  056%=      5-min Rain = 0
KAM1 151917Z 36014KT 28/18 A2991 RMK A01 T02830181  RH  054%=      5-min Rain = 0
KAM1 151918Z 36012KT 28/18 A2991 RMK A01 T02800182  RH  055%=      5-min Rain = 0
KAM1 151919Z 01012KT 28/18 A2991 RMK A01 T02800183  RH  056%=      5-min Rain = 0
KAM1 151920Z 01009KT 28/18 A2991 RMK A01 T02810181  RH  055%=      5-min Rain = 0
KAM1 151921Z 01011KT 28/18 A2991 RMK A01 T02800182  RH  055%=      5-min Rain = 0
KAM1 151922Z 01013KT 28/18 A2991 RMK A01 T02810182  RH  055%=      5-min Rain = 0
KAM1 151923Z 36011KT 28/18 A2991 RMK A01 T02820181  RH  054%=      5-min Rain = 0
KAM1 151924Z 35013KT 28/19 A2991 RMK A01 T02820186  RH  056%=      5-min Rain = 0
KAM1 151925Z 01012KT 29/19 A2991 RMK A01 T02850187  RH  055%=      5-min Rain = 0
KAM1 151926Z 36013KT 29/19 A2991 RMK A01 T02870187  RH  055%=      5-min Rain = 0
KAM1 151927Z 36010KT 29/18 A2991 RMK A01 T02870184  RH  054%=      5-min Rain = 0
KAM1 151928Z 36013KT 29/19 A2991 RMK A01 T02860186  RH  055%=      5-min Rain = 0
KAM1 151929Z 35012KT 29/19 A2991 RMK A01 T02860186  RH  055%=      5-min Rain = 0
KAM1 151930Z 34010KT 29/19 A2991 RMK A01 T02860187  RH  055%=      5-min Rain = 0
KAM1 151931Z 35011KT 29/19 A2991 RMK A01 T02860186  RH  055%=      5-min Rain = 0
KAM1 151932Z 35013KT 29/19 A2991 RMK A01 T02850185  RH  055%=      5-min Rain = 0
KAM1 151933Z 36013KT 28/19 A2991 RMK A01 T02840185  RH  055%=      5-min Rain = 0
KAM1 151934Z 00013G18KT 28/19 A2991 RMK A01 T02840186  RH  055%=      5-min Rain = 0
KAM1 151935Z 36012KT 28/18 A2991 RMK A01 T02840184  RH  054%=      5-min Rain = 0
KAM1 151936Z 35012KT 28/18 A2991 RMK A01 T02840183  RH  054%=      5-min Rain = 0
KAM1 151937Z 00013KT 28/18 A2991 RMK A01 T02840184  RH  055%=      5-min Rain = 0
KAM1 151938Z 00014KT 29/18 A2991 RMK A01 T02860183  RH  054%=      5-min Rain = 0
KAM1 151939Z 00012KT 29/19 A2991 RMK A01 T02850185  RH  055%=      5-min Rain = 0
KAM1 151940Z 01009KT 29/19 A2991 RMK A01 T02850186  RH  055%=      5-min Rain = 0
KAM1 151941Z 00008KT 29/18 A2991 RMK A01 T02860184  RH  054%=      5-min Rain = 0
KAM1 151942Z 02013G18KT 29/19 A2991 RMK A01 T02860186  RH  055%=      5-min Rain = 0
KAM1 151943Z 01012G18KT 29/19 A2991 RMK A01 T02880186  RH  054%=      5-min Rain = 0
KAM1 151944Z 03009KT 29/19 A2991 RMK A01 T02890189  RH  055%=      5-min Rain = 0
KAM1 151945Z 03012KT 29/18 A2991 RMK A01 T02900180  RH  052%=      5-min Rain = 0
KAM1 151946Z 02014KT 29/18 A2991 RMK A01 T02900181  RH  052%=      5-min Rain = 0
KAM1 151947Z 03011KT 29/18 A2991 RMK A01 T02890184  RH  053%=      5-min Rain = 0
KAM1 151948Z 01010KT 29/19 A2991 RMK A01 T02890185  RH  054%=      5-min Rain = 0
KAM1 151949Z 35011KT 29/19 A2991 RMK A01 T02880186  RH  054%=      5-min Rain = 0
KAM1 151950Z 36012KT 29/19 A299 RMK A01 T02870187  RH  055%=      5-min Rain = 0
KAM1 151951Z 36013G18KT 29/19 A299 RMK A01 T02870186  RH  054%=      5-min Rain = 0
KAM1 151952Z 01012G18KT 29/19 A2991 RMK A01 T02880188  RH  055%=      5-min Rain = 0
KAM1 151953Z 02013KT 29/19 A2991 RMK A01 T02900185  RH  053%=      5-min Rain = 0
KAM1 151954Z 00012KT 29/19 A2991 RMK A01 T02870185  RH  054%=      5-min Rain = 0
KAM1 151955Z 00012KT 29/19 A2991 RMK A01 T02870185  RH  054%=      5-min Rain = 0
KAM1 151956Z 01012KT 29/19 A2991 RMK A01 T02870185  RH  054%=      5-min Rain = 0
KAM1 151957Z 03010KT 29/19 A2991 RMK A01 T02870185  RH  054%=      5-min Rain = 0
KAM1 151958Z 02015KT 29/18 A2991 RMK A01 T02890184  RH  053%=      5-min Rain = 0
KAM1 151959Z 03012KT 29/18 A2991 RMK A01 T02900184  RH  053%=      5-min Rain = 0
KAM1 152000Z 04010KT 29/19 A2991 RMK A01 T02900185  RH  053%=      5-min Rain = 0
KAM1 152001Z 02009KT 29/18 A2991 RMK A01 T02910181  RH  052%=      5-min Rain = 0
KAM1 152002Z 01015KT 29/18 A2991 RMK A01 T02900183  RH  053%=      5-min Rain = 0
KAM1 152003Z 00015KT 29/18 A2991 RMK A01 T02890183  RH  053%=      5-min Rain = 0
KAM1 152004Z 01012KT 29/19 A299 RMK A01 T02880185  RH  053%=      5-min Rain = 0
KAM1 152005Z 00013KT 29/18 A2991 RMK A01 T02890184  RH  053%=      5-min Rain = 0
KAM1 152006Z 00008KT 29/19 A299 RMK A01 T02890187  RH  054%=      5-min Rain = 0
KAM1 152007Z 36011KT 29/19 A2991 RMK A01 T02900186  RH  054%=      5-min Rain = 0
KAM1 152008Z 35009KT 29/19 A299 RMK A01 T02900186  RH  053%=      5-min Rain = 0
KAM1 152009Z 00015G21KT 29/19 A299 RMK A01 T02900187  RH  054%=      5-min Rain = 0
KAM1 152010Z 02011KT 29/18 A2991 RMK A01 T02910184  RH  052%=      5-min Rain = 0
KAM1 152011Z 04011KT 29/19 A2991 RMK A01 T02910186  RH  053%=      5-min Rain = 0
KAM1 152012Z 02014KT 29/19 A2991 RMK A01 T02920185  RH  052%=      5-min Rain = 0
KAM1 152013Z 02013KT 29/19 A2991 RMK A01 T02930185  RH  052%=      5-min Rain = 0
KAM1 152014Z 03010KT 29/18 A2991 RMK A01 T02910182  RH  052%=      5-min Rain = 0
KAM1 152015Z 01009KT 29/19 A2991 RMK A01 T02880185  RH  054%=      5-min Rain = 0
KAM1 152016Z 01012KT 29/19 A2991 RMK A01 T02900186  RH  053%=      5-min Rain = 0
KAM1 152017Z 01011KT 29/19 A2991 RMK A01 T02910185  RH  053%=      5-min Rain = 0
KAM1 152018Z 02012KT 29/18 A2991 RMK A01 T02920184  RH  052%=      5-min Rain = 0
KAM1 152019Z 00011KT 29/18 A2991 RMK A01 T02920184  RH  052%=      5-min Rain = 0
KAM1 152020Z 00013KT 29/18 A299 RMK A01 T02920183  RH  052%=      5-min Rain = 0
KAM1 152021Z 00013KT 29/18 A299 RMK A01 T02900184  RH  053%=      5-min Rain = 0
KAM1 152022Z 01011KT 29/18 A299 RMK A01 T02910184  RH  053%=      5-min Rain = 0
KAM1 152023Z 00011KT 29/18 A299 RMK A01 T02900183  RH  052%=      5-min Rain = 0
KAM1 152024Z 01014KT 29/19 A299 RMK A01 T02900185  RH  053%=      5-min Rain = 0
KAM1 152025Z 04011KT 29/19 A299 RMK A01 T02930185  RH  052%=      5-min Rain = 0
KAM1 152026Z 03012G18KT 30/18 A299 RMK A01 T02950183  RH  051%=      5-min Rain = 0
KAM1 152027Z 04014G19KT 30/18 A299 RMK A01 T02950181  RH  050%=      5-min Rain = 0
KAM1 152028Z 03012KT 29/18 A299 RMK A01 T02940182  RH  051%=      5-min Rain = 0
KAM1 152029Z 02014KT 29/19 A299 RMK A01 T02940185  RH  052%=      5-min Rain = 0
KAM1 152030Z 00013KT 29/18 A299 RMK A01 T02940184  RH  051%=      5-min Rain = 0
KAM1 152031Z 01011G16KT 29/19 A299 RMK A01 T02910185  RH  053%=      5-min Rain = 0
KAM1 152032Z 01012KT 29/19 A299 RMK A01 T02900186  RH  053%=      5-min Rain = 0
KAM1 152033Z 01012KT 29/19 A299 RMK A01 T02900185  RH  053%=      5-min Rain = 0
KAM1 152034Z 02010KT 29/19 A299 RMK A01 T02910187  RH  054%=      5-min Rain = 0
KAM1 152035Z 04012KT 29/19 A299 RMK A01 T02940187  RH  053%=      5-min Rain = 0
KAM1 152036Z 03011KT 30/18 A299 RMK A01 T02970183  RH  050%=      5-min Rain = 0
KAM1 152037Z 01010KT 30/19 A299 RMK A01 T02970186  RH  051%=      5-min Rain = 0
KAM1 152038Z 01013KT 30/19 A299 RMK A01 T02970186  RH  051%=      5-min Rain = 0
KAM1 152039Z 02014G21KT 30/19 A299 RMK A01 T02960187  RH  052%=      5-min Rain = 0
KAM1 152040Z 03014KT 30/18 A299 RMK A01 T02950182  RH  050%=      5-min Rain = 0
KAM1 152041Z 04012KT 29/18 A299 RMK A01 T02920181  RH  051%=      5-min Rain = 0
KAM1 152042Z 03013KT 29/18 A299 RMK A01 T02910183  RH  052%=      5-min Rain = 0
KAM1 152043Z 02012KT 29/18 A299 RMK A01 T02920181  RH  051%=      5-min Rain = 0
KAM1 152044Z 04010KT 29/19 A299 RMK A01 T02930186  RH  053%=      5-min Rain = 0
KAM1 152045Z 03012KT 30/18 A299 RMK A01 T02950182  RH  051%=      5-min Rain = 0
KAM1 152046Z 03011KT 30/18 A299 RMK A01 T02960180  RH  050%=      5-min Rain = 0
KAM1 152047Z 03013KT 30/18 A299 RMK A01 T02970182  RH  050%=      5-min Rain = 0
KAM1 152048Z 02014KT 30/18 A299 RMK A01 T02970181  RH  050%=      5-min Rain = 0
KAM1 152049Z 02012KT 30/18 A299 RMK A01 T02950180  RH  050%=      5-min Rain = 0
KAM1 152050Z 02012KT 29/18 A299 RMK A01 T02930180  RH  050%=      5-min Rain = 0
KAM1 152051Z 03013KT 29/18 A299 RMK A01 T02930179  RH  050%=      5-min Rain = 0
KAM1 152052Z 03009KT 29/18 A299 RMK A01 T02940184  RH  051%=      5-min Rain = 0
KAM1 152053Z 05012KT 30/18 A299 RMK A01 T02960184  RH  051%=      5-min Rain = 0
KAM1 152054Z 03013G18KT 30/18 A299 RMK A01 T02970184  RH  051%=      5-min Rain = 0
KAM1 152055Z 03013KT 30/18 A299 RMK A01 T02980184  RH  050%=      5-min Rain = 0
KAM1 152056Z 04010KT 30/18 A299 RMK A01 T02980184  RH  050%=      5-min Rain = 0
KAM1 152057Z 05014KT 30/18 A299 RMK A01 T02980183  RH  050%=      5-min Rain = 0
KAM1 152058Z 03013G20KT 30/19 A299 RMK A01 T02990186  RH  051%=      5-min Rain = 0
KAM1 152059Z 04016KT 30/18 A299 RMK A01 T02990182  RH  049%=      5-min Rain = 0
KAM1 152100Z 03015KT 30/18 A299 RMK A01 T02970182  RH  050%=      5-min Rain = 0
KAM1 152101Z 04011KT 30/18 A299 RMK A01 T02960184  RH  051%=      5-min Rain = 0
KAM1 152102Z 03013G20KT 30/18 A2989 RMK A01 T02960183  RH  051%=      5-min Rain = 0
KAM1 152103Z 03016KT 30/18 A299 RMK A01 T02960182  RH  051%=      5-min Rain = 0
KAM1 152104Z 03012KT 29/18 A299 RMK A01 T02930178  RH  050%=      5-min Rain = 0
KAM1 152105Z 02011KT 29/18 A2989 RMK A01 T02890178  RH  051%=      5-min Rain = 0
KAM1 152106Z 01011KT 29/18 A2989 RMK A01 T02870177  RH  051%=      5-min Rain = 0
KAM1 152107Z 03015KT 29/18 A2989 RMK A01 T02870180  RH  052%=      5-min Rain = 0
KAM1 152108Z 04014KT 29/18 A2989 RMK A01 T02880176  RH  051%=      5-min Rain = 0
KAM1 152109Z 04014KT 29/18 A2989 RMK A01 T02890177  RH  051%=      5-min Rain = 0
KAM1 152110Z 04015KT 29/18 A2989 RMK A01 T02890180  RH  052%=      5-min Rain = 0
KAM1 152111Z 04012KT 29/18 A2989 RMK A01 T02900181  RH  052%=      5-min Rain = 0
KAM1 152112Z 06013KT 29/18 A2989 RMK A01 T02920180  RH  051%=      5-min Rain = 0
KAM1 152113Z 05015KT 29/18 A2989 RMK A01 T02930179  RH  050%=      5-min Rain = 0
KAM1 152114Z 04014KT 29/18 A2989 RMK A01 T02940181  RH  051%=      5-min Rain = 0
KAM1 152115Z 03015KT 29/18 A2989 RMK A01 T02940181  RH  051%=      5-min Rain = 0
KAM1 152116Z 03013KT 29/18 A2989 RMK A01 T02940179  RH  050%=      5-min Rain = 0
KAM1 152117Z 02010G15KT 29/18 A2989 RMK A01 T02920178  RH  050%=      5-min Rain = 0
KAM1 152118Z 02009KT 29/18 A2988 RMK A01 T02920180  RH  051%=      5-min Rain = 0
KAM1 152119Z 02012KT 29/19 A2988 RMK A01 T02930186  RH  053%=      5-min Rain = 0
KAM1 152120Z 03012KT 30/19 A2988 RMK A01 T02970186  RH  051%=      5-min Rain = 0
KAM1 152121Z 03015KT 30/19 A2988 RMK A01 T02990185  RH  051%=      5-min Rain = 0
KAM1 152122Z 01015KT 30/18 A2988 RMK A01 T02990183  RH  050%=      5-min Rain = 0
KAM1 152123Z 01017KT 30/18 A2988 RMK A01 T02970184  RH  051%=      5-min Rain = 0
KAM1 152124Z 01016KT 29/18 A2988 RMK A01 T02940182  RH  051%=      5-min Rain = 0
KAM1 152125Z 01017KT 29/18 A2988 RMK A01 T02920181  RH  051%=      5-min Rain = 0
KAM1 152126Z 02017KT 29/18 A2987 RMK A01 T02920181  RH  051%=      5-min Rain = 0
KAM1 152127Z 03016KT 29/18 A2987 RMK A01 T02940181  RH  051%=      5-min Rain = 0
KAM1 152128Z 05015KT 30/18 A2987 RMK A01 T02950180  RH  050%=      5-min Rain = 0
KAM1 152129Z 05016KT 30/18 A2987 RMK A01 T02950181  RH  050%=      5-min Rain = 0
KAM1 152130Z 03018KT 30/18 A2987 RMK A01 T02950181  RH  050%=      5-min Rain = 0
KAM1 152131Z 04015KT 30/19 A2987 RMK A01 T02960185  RH  051%=      5-min Rain = 0
KAM1 152132Z 04015KT 30/18 A2986 RMK A01 T02980179  RH  049%=      5-min Rain = 0
KAM1 152133Z 04015KT 30/18 A2986 RMK A01 T02980179  RH  049%=      5-min Rain = 0
KAM1 152134Z 03017KT 30/18 A2986 RMK A01 T02990181  RH  049%=      5-min Rain = 0
KAM1 152135Z 02013KT 30/18 A2986 RMK A01 T02970183  RH  051%=      5-min Rain = 0
KAM1 152136Z 04015KT 30/19 A2986 RMK A01 T02970186  RH  051%=      5-min Rain = 0
KAM1 152137Z 05016KT 30/18 A2986 RMK A01 T02990182  RH  050%=      5-min Rain = 0
KAM1 152138Z 04015KT 30/18 A2985 RMK A01 T02980182  RH  050%=      5-min Rain = 0
KAM1 152139Z 03017KT 30/18 A2985 RMK A01 T02990184  RH  050%=      5-min Rain = 0
KAM1 152140Z 03019KT 30/18 A2985 RMK A01 T02990184  RH  050%=      5-min Rain = 0
KAM1 152141Z 03020KT 30/18 A2985 RMK A01 T02980183  RH  050%=      5-min Rain = 0
KAM1 152142Z 04016KT 30/18 A2985 RMK A01 T02950180  RH  050%=      5-min Rain = 0
KAM1 152143Z 03018KT 29/18 A2985 RMK A01 T02910179  RH  051%=      5-min Rain = 0
KAM1 152144Z 04017KT 29/18 A2985 RMK A01 T02880177  RH  051%=      5-min Rain = 0
KAM1 152145Z 04015KT 29/18 A2985 RMK A01 T02850177  RH  052%=      5-min Rain = 0
KAM1 152146Z 03013KT 28/18 A2985 RMK A01 T02830179  RH  053%=      5-min Rain = 0
KAM1 152147Z 03017KT 28/18 A2985 RMK A01 T02830179  RH  053%=      5-min Rain = 0
KAM1 152148Z 04016KT 28/18 A2985 RMK A01 T02830176  RH  052%=      5-min Rain = 0
KAM1 152149Z 04017KT 28/18 A2985 RMK A01 T02810175  RH  052%=      5-min Rain = 0
KAM1 152150Z 04016KT 28/17 A2986 RMK A01 T02790173  RH  053%=      5-min Rain = 0
KAM1 152151Z 04015KT 28/17 A2986 RMK A01 T02780173  RH  053%=      5-min Rain = 0
KAM1 152152Z 04014KT 28/17 A2986 RMK A01 T02770173  RH  053%=      5-min Rain = 0
KAM1 152153Z 04015KT 28/17 A2986 RMK A01 T02770173  RH  053%=      5-min Rain = 0
KAM1 152154Z 04016KT 28/17 A2986 RMK A01 T02780173  RH  053%=      5-min Rain = 0
KAM1 152155Z 04015KT 28/17 A2986 RMK A01 T02770174  RH  053%=      5-min Rain = 0
KAM1 152156Z 03014KT 28/18 A2986 RMK A01 T02770175  RH  054%=      5-min Rain = 0
KAM1 152157Z 04016KT 28/18 A2986 RMK A01 T02770176  RH  054%=      5-min Rain = 0
KAM1 152158Z 04017KT 28/18 A2986 RMK A01 T02760177  RH  055%=      5-min Rain = 0
KAM1 152159Z 04014KT 28/18 A2986 RMK A01 T02760176  RH  054%=      5-min Rain = 0
KAM1 152200Z 03010KT 28/18 A2986 RMK A01 T02750175  RH  054%=      5-min Rain = 0
KAM1 152201Z 03014KT 28/18 A2986 RMK A01 T02750176  RH  055%=      5-min Rain = 0
KAM1 152202Z 03013KT 27/17 A2987 RMK A01 T02740174  RH  055%=      5-min Rain = 0
KAM1 152203Z 03012KT 27/18 A2987 RMK A01 T02740175  RH  055%=      5-min Rain = 0
KAM1 152204Z 04015KT 27/18 A2987 RMK A01 T02730175  RH  055%=      5-min Rain = 0
KAM1 152205Z 05015KT 27/18 A2987 RMK A01 T02730176  RH  055%=      5-min Rain = 0
KAM1 152206Z 05012KT 27/18 A2987 RMK A01 T02730175  RH  055%=      5-min Rain = 0
KAM1 152207Z 05013KT 27/17 A2987 RMK A01 T02720174  RH  055%=      5-min Rain = 0
KAM1 152208Z 04012KT 27/17 A2987 RMK A01 T02720173  RH  055%=      5-min Rain = 0
KAM1 152209Z 05012G17KT 27/17 A2987 RMK A01 T02720173  RH  055%=      5-min Rain = 0
KAM1 152210Z 04014KT 27/17 A2987 RMK A01 T02710173  RH  055%=      5-min Rain = 0
KAM1 152211Z 04012KT 27/17 A2988 RMK A01 T02700172  RH  055%=      5-min Rain = 0
KAM1 152212Z 04011KT 27/17 A2988 RMK A01 T02700172  RH  055%=      5-min Rain = 0
KAM1 152213Z 04011KT 27/17 A2988 RMK A01 T02700171  RH  055%=      5-min Rain = 0
KAM1 152214Z 04010KT 27/17 A2988 RMK A01 T02690170  RH  055%=      5-min Rain = 0
KAM1 152215Z 05011KT 27/17 A2988 RMK A01 T02690171  RH  055%=      5-min Rain = 0
KAM1 152216Z 04012KT 27/17 A2988 RMK A01 T02690172  RH  055%=      5-min Rain = 0
KAM1 152217Z 04011KT 27/17 A2988 RMK A01 T02690172  RH  055%=      5-min Rain = 0
KAM1 152218Z 05009KT 27/17 A2988 RMK A01 T02680173  RH  056%=      5-min Rain = 0
KAM1 152219Z 05011KT 27/17 A2988 RMK A01 T02680174  RH  056%=      5-min Rain = 0
KAM1 152220Z 05008KT 27/17 A2988 RMK A01 T02680173  RH  056%=      5-min Rain = 0
KAM1 152221Z 05008KT 27/17 A2988 RMK A01 T02680174  RH  056%=      5-min Rain = 0
KAM1 152222Z 06008KT 27/17 A2989 RMK A01 T02680174  RH  056%=      5-min Rain = 0
KAM1 152223Z 06010KT 27/17 A2989 RMK A01 T02680174  RH  056%=      5-min Rain = 0
KAM1 152224Z 06012KT 27/17 A2989 RMK A01 T02680171  RH  055%=      5-min Rain = 0
KAM1 152225Z 05010KT 27/17 A2989 RMK A01 T02680171  RH  055%=      5-min Rain = 0
KAM1 152226Z 05010KT 27/17 A2989 RMK A01 T02680171  RH  055%=      5-min Rain = 0
KAM1 152227Z 04011KT 27/17 A2989 RMK A01 T02680171  RH  055%=      5-min Rain = 0
KAM1 152228Z 05010KT 27/17 A2989 RMK A01 T02680171  RH  055%=      5-min Rain = 0
KAM1 152229Z 05012KT 27/17 A2989 RMK A01 T02680171  RH  055%=      5-min Rain = 0
KAM1 152230Z 05011KT 27/17 A2989 RMK A01 T02680171  RH  055%=      5-min Rain = 0
KAM1 152231Z 04010KT 27/17 A2989 RMK A01 T02680171  RH  055%=      5-min Rain = 0
KAM1 152232Z 05010KT 27/17 A299 RMK A01 T02680172  RH  056%=      5-min Rain = 0
KAM1 152233Z 04012KT 27/17 A299 RMK A01 T02680172  RH  056%=      5-min Rain = 0
KAM1 152234Z 05009KT 27/17 A299 RMK A01 T02680172  RH  056%=      5-min Rain = 0
KAM1 152235Z 05008KT 27/17 A299 RMK A01 T02670172  RH  056%=      5-min Rain = 0
KAM1 152236Z 05008KT 27/17 A299 RMK A01 T02670173  RH  056%=      5-min Rain = 0
KAM1 152237Z 05009KT 27/17 A299 RMK A01 T02660173  RH  057%=      5-min Rain = 0
KAM1 152238Z 05009KT 27/17 A299 RMK A01 T02660173  RH  057%=      5-min Rain = 0
KAM1 152239Z 06009KT 27/17 A299 RMK A01 T02660173  RH  057%=      5-min Rain = 0
KAM1 152240Z 05008G13KT 27/17 A299 RMK A01 T02660173  RH  057%=      5-min Rain = 0
KAM1 152241Z 06009KT 27/17 A299 RMK A01 T02660174  RH  057%=      5-min Rain = 0
KAM1 152242Z 06007KT 27/17 A299 RMK A01 T02660173  RH  057%=      5-min Rain = 0
KAM1 152243Z 07006KT 27/17 A299 RMK A01 T02660174  RH  057%=      5-min Rain = 0
KAM1 152244Z 07005KT 27/17 A2991 RMK A01 T02660174  RH  057%=      5-min Rain = 0
KAM1 152245Z 09004KT 27/18 A2991 RMK A01 T02660175  RH  057%=      5-min Rain = 0
KAM1 152246Z 10004KT 27/18 A2991 RMK A01 T02660175  RH  057%=      5-min Rain = 0
KAM1 152247Z 13004KT 27/17 A2991 RMK A01 T02650174  RH  057%=      5-min Rain = 0
KAM1 152248Z 12005KT 27/18 A2992 RMK A01 T02650175  RH  058%=      5-min Rain = 0
KAM1 152249Z 09005KT 27/18 A2992 RMK A01 T02650175  RH  058%=      5-min Rain = 0
KAM1 152250Z 10004KT 26/18 A2991 RMK A01 T02640176  RH  058%=      5-min Rain = 0
KAM1 152251Z 08006KT 26/18 A2991 RMK A01 T02630177  RH  059%=      5-min Rain = 0
KAM1 152252Z 07005KT 26/18 A2991 RMK A01 T02610175  RH  059%=      5-min Rain = 0
KAM1 152253Z 05005KT 26/17 A2991 RMK A01 T02610174  RH  059%=      5-min Rain = 0
KAM1 152254Z 04005KT 26/18 A2991 RMK A01 T02610175  RH  059%=      5-min Rain = 0
KAM1 152255Z 03005KT 26/18 A2991 RMK A01 T02600176  RH  060%=      5-min Rain = 0
KAM1 152256Z 01005KT 26/18 A2991 RMK A01 T02590177  RH  061%=      5-min Rain = 0
KAM1 152257Z 35005KT 26/18 A2991 RMK A01 T02570180  RH  062%=      5-min Rain = 0
KAM1 152258Z 33005KT 26/18 A2991 RMK A01 T02550182  RH  064%=      5-min Rain = 0
KAM1 152259Z 32005KT 25/18 A2992 RMK A01 T02520183  RH  066%=      5-min Rain = 0
KAM1 152300Z 31005KT 25/18 A2992 RMK A01 T02500184  RH  067%=      5-min Rain = 0
KAM1 152301Z 30005KT 25/19 A2992 RMK A01 T02490185  RH  068%=      5-min Rain = 0
KAM1 152302Z 30005KT 25/19 A2993 RMK A01 T02470185  RH  068%=      5-min Rain = 0
KAM1 152303Z 29005KT 25/19 A2993 RMK A01 T02460187  RH  070%=      5-min Rain = 0
KAM1 152304Z 28005KT 24/19 A2993 RMK A01 T02440187  RH  070%=      5-min Rain = 0
KAM1 152305Z 27006KT 24/19 A2993 RMK A01 T02430187  RH  071%=      5-min Rain = 0
KAM1 152306Z 27007KT 24/19 A2993 RMK A01 T02430187  RH  071%=      5-min Rain = 0
KAM1 152307Z 27008KT 24/19 A2993 RMK A01 T02420187  RH  072%=      5-min Rain = 0
KAM1 152308Z 27009KT 24/19 A2993 RMK A01 T02410187  RH  072%=      5-min Rain = 0
KAM1 152309Z 27009KT 24/19 A2993 RMK A01 T02420187  RH  072%=      5-min Rain = 0
KAM1 152310Z 27010KT 24/19 A2993 RMK A01 T02420186  RH  071%=      5-min Rain = 0
KAM1 152311Z 27011KT 24/19 A2993 RMK A01 T02430187  RH  071%=      5-min Rain = 0
KAM1 152312Z 28012KT 24/19 A2993 RMK A01 T02430187  RH  071%=      5-min Rain = 0
KAM1 152313Z 28012KT 24/19 A2993 RMK A01 T02430185  RH  070%=      5-min Rain = 0
KAM1 152314Z 26014KT 24/19 A2994 RMK A01 T02440185  RH  070%=      5-min Rain = 0
KAM1 152315Z 26015KT 24/19 A2994 RMK A01 T02440185  RH  070%=      5-min Rain = 0
KAM1 152316Z 26017KT 24/19 A2994 RMK A01 T02440188  RH  071%=      5-min Rain = 0
KAM1 152317Z 27018KT 24/19 A2994 RMK A01 T02430188  RH  071%=      5-min Rain = 0
KAM1 152318Z 24018G23KT 24/16 A2994 RMK A01 T02430160  RH  061%=      5-min Rain = 0
KAM1 152319Z 25014KT 25/10 A2993 RMK A01 T02470099  RH  039%=      5-min Rain = 0
KAM1 152320Z 24012G17KT 25/09 A2993 RMK A01 T02500090  RH  036%=      5-min Rain = 0
KAM1 152321Z 22011KT 25/10 A2992 RMK A01 T02500102  RH  039%=      5-min Rain = 0
KAM1 152322Z 22023G29KT 25/08 A2992 RMK A01 T02460084  RH  036%=      5-min Rain = 0
KAM1 152323Z 21021KT 25/07 A2991 RMK A01 T02480067  RH  031%=      5-min Rain = 0
KAM1 152324Z 20017KT 25/06 A2991 RMK A01 T02540061  RH  029%=      5-min Rain = 0
KAM1 152325Z 22019KT 26/06 A2991 RMK A01 T02590059  RH  028%=      5-min Rain = 0
KAM1 152326Z 23015KT 26/06 A2992 RMK A01 T02600063  RH  028%=      5-min Rain = 0
KAM1 152327Z 23017G23KT 26/07 A2992 RMK A01 T02580066  RH  029%=      5-min Rain = 0
KAM1 152328Z 25020KT 26/06 A2992 RMK A01 T02570060  RH  028%=      5-min Rain = 0
KAM1 152329Z 25015G20KT 26/06 A2992 RMK A01 T02600056  RH  027%=      5-min Rain = 0
KAM1 152330Z 27017G24KT 26/05 A2993 RMK A01 T02630052  RH  026%=      5-min Rain = 0
KAM1 152331Z 29021KT 27/05 A2993 RMK A01 T02650052  RH  025%=      5-min Rain = 0
KAM1 152332Z 30017G22KT 26/05 A2993 RMK A01 T02640047  RH  025%=      5-min Rain = 0
KAM1 152333Z 27013KT 26/05 A2993 RMK A01 T02630047  RH  025%=      5-min Rain = 0
KAM1 152334Z 26014KT 26/04 A2994 RMK A01 T02620044  RH  024%=      5-min Rain = 0
KAM1 152335Z 25011KT 26/04 A2994 RMK A01 T02620043  RH  024%=      5-min Rain = 0
KAM1 152336Z 22009KT 26/05 A2994 RMK A01 T02610045  RH  025%=      5-min Rain = 0
KAM1 152337Z 21011KT 26/05 A2994 RMK A01 T02580051  RH  027%=      5-min Rain = 0
KAM1 152338Z 21012KT 25/05 A2994 RMK A01 T02540047  RH  026%=      5-min Rain = 0
KAM1 152339Z 20014KT 25/06 A2995 RMK A01 T02530055  RH  028%=      5-min Rain = 0
KAM1 152340Z 19015KT 25/07 A2995 RMK A01 T02510072  RH  032%=      5-min Rain = 0
KAM1 152341Z 19013KT 25/08 A2995 RMK A01 T02480082  RH  035%=      5-min Rain = 0
KAM1 152342Z 20015KT 25/09 A2995 RMK A01 T02450085  RH  036%=      5-min Rain = 0
KAM1 152343Z 19015KT 24/09 A2995 RMK A01 T02420086  RH  037%=      5-min Rain = 0
KAM1 152344Z 20017KT 24/09 A2995 RMK A01 T02410087  RH  037%=      5-min Rain = 0
KAM1 152345Z 21013G18KT 24/09 A2996 RMK A01 T02400092  RH  039%=      5-min Rain = 0
KAM1 152346Z 22012KT 24/09 A2997 RMK A01 T02370094  RH  040%=      5-min Rain = 0
KAM1 152347Z 22013G18KT 23/09 A2997 RMK A01 T02340094  RH  041%=      5-min Rain = 0
KAM1 152348Z 22015KT 23/09 A2998 RMK A01 T02330092  RH  041%=      5-min Rain = 0
KAM1 152349Z 22013KT 23/09 A2998 RMK A01 T02340093  RH  041%=      5-min Rain = 0
KAM1 152350Z 21012KT 23/10 A2999 RMK A01 T02330097  RH  042%=      5-min Rain = 0
KAM1 152351Z 21014KT 23/10 A2999 RMK A01 T02320095  RH  042%=      5-min Rain = 0
KAM1 152352Z 21010KT 23/10 A30 RMK A01 T02310098  RH  043%=      5-min Rain = 0
KAM1 152353Z 21009KT 23/10 A30 RMK A01 T02300099  RH  043%=      5-min Rain = 0
KAM1 152354Z 20010KT 23/10 A30 RMK A01 T02280099  RH  044%=      5-min Rain = 0
KAM1 152355Z 20009KT 23/10 A30 RMK A01 T02280097  RH  043%=      5-min Rain = 0
KAM1 152356Z 20008KT 23/10 A30 RMK A01 T02270099  RH  044%=      5-min Rain = 0
KAM1 152357Z 20006KT 22/10 A2999 RMK A01 T02240103  RH  046%=      5-min Rain = 0
KAM1 152358Z 17004KT 22/10 A2999 RMK A01 T02220104  RH  047%=      5-min Rain = 0
KAM1 152359Z 18005KT 22/11 A2999 RMK A01 T02200109  RH  049%=      5-min Rain = 0
KAM1 160000Z 19004KT 22/11 A2998 RMK A01 T02160113  RH  052%=      5-min Rain = 0
KAM1 160001Z 15003KT 21/11 A2998 RMK A01 T02130108  RH  051%=      5-min Rain = 0
KAM1 160002Z 16004KT 21/11 A2998 RMK A01 T02120105  RH  050%=      5-min Rain = 0
KAM1 160003Z 16006KT 21/10 A2998 RMK A01 T02120097  RH  048%=      5-min Rain = 0
KAM1 160004Z 16006KT 22/10 A2997 RMK A01 T02150097  RH  047%=      5-min Rain = 0
KAM1 160005Z 14007KT 22/10 A2997 RMK A01 T02170103  RH  048%=      5-min Rain = 0
KAM1 160006Z 12008KT 21/11 A2996 RMK A01 T02140109  RH  051%=      5-min Rain = 0
KAM1 160007Z 11010KT 21/11 A2996 RMK A01 T02100109  RH  053%=      5-min Rain = 0
KAM1 160008Z 10011KT 21/11 A2995 RMK A01 T02080107  RH  052%=      5-min Rain = 0
KAM1 160009Z 07010KT 21/11 A2995 RMK A01 T02060107  RH  053%=      5-min Rain = 0
KAM1 160010Z 03011KT 21/11 A2995 RMK A01 T02060109  RH  054%=      5-min Rain = 0
KAM1 160011Z 05012KT 21/11 A2996 RMK A01 T02060110  RH  054%=      5-min Rain = 0
KAM1 160012Z 05012KT 21/11 A2995 RMK A01 T02060107  RH  053%=      5-min Rain = 0
KAM1 160013Z 05012KT 21/10 A2995 RMK A01 T02080104  RH  051%=      5-min Rain = 0
KAM1 160014Z 05011KT 21/11 A2995 RMK A01 T02100105  RH  051%=      5-min Rain = 0
KAM1 160015Z 06010KT 21/10 A2995 RMK A01 T02100100  RH  049%=      5-min Rain = 0
KAM1 160016Z 05009KT 21/09 A2996 RMK A01 T02130094  RH  047%=      5-min Rain = 0
KAM1 160017Z 06009KT 22/09 A2996 RMK A01 T02170092  RH  045%=      5-min Rain = 0
KAM1 160018Z 07006KT 22/08 A2995 RMK A01 T02200083  RH  042%=      5-min Rain = 0
KAM1 160019Z 06009KT 23/07 A2995 RMK A01 T02270070  RH  036%=      5-min Rain = 0
KAM1 160020Z 06005KT 23/08 A2995 RMK A01 T02330082  RH  038%=      5-min Rain = 0
KAM1 160021Z 33013G24KT 23/08 A2996 RMK A01 T02330078  RH  037%=      5-min Rain = 0
KAM1 160022Z 32023G30KT 24/06 A2995 RMK A01 T02360062  RH  033%=      5-min Rain = 0
KAM1 160023Z 34012KT 25/06 A2995 RMK A01 T02450056  RH  030%=      5-min Rain = 0
KAM1 160024Z 33010KT 25/07 A2995 RMK A01 T02470071  RH  032%=      5-min Rain = 0
KAM1 160025Z 31009KT 24/07 A2995 RMK A01 T02420070  RH  033%=      5-min Rain = 0
KAM1 160026Z 30005KT 24/08 A2995 RMK A01 T02380084  RH  037%=      5-min Rain = 0
KAM1 160027Z 31007G19KT 23/07 A2995 RMK A01 T02330074  RH  036%=      5-min Rain = 0
KAM1 160028Z 31018G31KT 24/06 A2995 RMK A01 T02360058  RH  032%=      5-min Rain = 0
KAM1 160029Z 35011KT 25/06 A2994 RMK A01 T02460058  RH  030%=      5-min Rain = 0
KAM1 160030Z 01008KT 25/06 A2994 RMK A01 T02480060  RH  030%=      5-min Rain = 0
KAM1 160031Z 27006KT 25/06 A2994 RMK A01 T02480061  RH  030%=      5-min Rain = 0
KAM1 160032Z 19010KT 25/07 A2994 RMK A01 T02460066  RH  031%=      5-min Rain = 0
KAM1 160033Z 19013KT 24/08 A2994 RMK A01 T02420078  RH  035%=      5-min Rain = 0
KAM1 160034Z 18011KT 23/09 A2994 RMK A01 T02330093  RH  041%=      5-min Rain = 0
KAM1 160035Z 20010KT 22/10 A2994 RMK A01 T02230097  RH  045%=      5-min Rain = 0
KAM1 160036Z 19013KT 22/09 A2993 RMK A01 T02190093  RH  045%=      5-min Rain = 0
KAM1 160037Z 19013KT 22/10 A2993 RMK A01 T02170095  RH  046%=      5-min Rain = 0
KAM1 160038Z 20016G21KT 21/09 A2993 RMK A01 T02140092  RH  046%=      5-min Rain = 0
KAM1 160039Z 20014KT 22/07 A2992 RMK A01 T02200068  RH  037%=      5-min Rain = 0
KAM1 160040Z 19012KT 23/07 A2992 RMK A01 T02300068  RH  035%=      5-min Rain = 0
KAM1 160041Z 18014KT 24/07 A2992 RMK A01 T02350066  RH  034%=      5-min Rain = 0
KAM1 160042Z 17011KT 24/06 A2992 RMK A01 T02370063  RH  033%=      5-min Rain = 0
KAM1 160043Z 15010KT 24/07 A2992 RMK A01 T02390071  RH  034%=      5-min Rain = 0
KAM1 160044Z 15008KT 24/08 A2992 RMK A01 T02360077  RH  036%=      5-min Rain = 0
KAM1 160045Z 14009KT 23/08 A2992 RMK A01 T02330077  RH  037%=      5-min Rain = 0
KAM1 160046Z 14009KT 23/08 A2991 RMK A01 T02300079  RH  038%=      5-min Rain = 0
KAM1 160047Z 15010KT 23/07 A2991 RMK A01 T02280069  RH  036%=      5-min Rain = 0
KAM1 160048Z 16009KT 23/07 A2991 RMK A01 T02300070  RH  036%=      5-min Rain = 0
KAM1 160049Z 15008KT 23/08 A2991 RMK A01 T02300076  RH  037%=      5-min Rain = 0
KAM1 160050Z 14007KT 23/08 A2991 RMK A01 T02280078  RH  038%=      5-min Rain = 0
KAM1 160051Z 14006KT 23/08 A2991 RMK A01 T02260079  RH  039%=      5-min Rain = 0
KAM1 160052Z 14006KT 22/08 A2991 RMK A01 T02240080  RH  039%=      5-min Rain = 0
KAM1 160053Z 14006KT 22/08 A2991 RMK A01 T02230082  RH  040%=      5-min Rain = 0
KAM1 160054Z 14004KT 22/08 A2991 RMK A01 T02220082  RH  041%=      5-min Rain = 0
KAM1 160055Z 15004KT 22/08 A2991 RMK A01 T02210084  RH  041%=      5-min Rain = 0
KAM1 160056Z 17005KT 22/08 A2991 RMK A01 T02210081  RH  041%=      5-min Rain = 0
KAM1 160057Z 18007KT 22/09 A2992 RMK A01 T02200089  RH  043%=      5-min Rain = 0
KAM1 160058Z 20007KT 22/10 A2992 RMK A01 T02170095  RH  045%=      5-min Rain = 0
KAM1 160059Z 21007KT 21/10 A2992 RMK A01 T02120098  RH  048%=      5-min Rain = 0
KAM1 160100Z 20005KT 21/10 A2992 RMK A01 T02090095  RH  048%=      5-min Rain = 0
KAM1 160101Z 20004KT 21/09 A2992 RMK A01 T02080092  RH  047%=      5-min Rain = 0
KAM1 160102Z 21003KT 21/09 A2993 RMK A01 T02090093  RH  047%=      5-min Rain = 0
KAM1 160103Z 21003KT 21/09 A2993 RMK A01 T02090091  RH  047%=      5-min Rain = 0
KAM1 160104Z 20004KT 21/09 A2993 RMK A01 T02100089  RH  046%=      5-min Rain = 0
KAM1 160105Z 19004KT 21/09 A2993 RMK A01 T02110088  RH  045%=      5-min Rain = 0
KAM1 160106Z 18004KT 21/09 A2993 RMK A01 T02120092  RH  046%=      5-min Rain = 0
KAM1 160107Z 15003KT 21/10 A2992 RMK A01 T02120097  RH  048%=      5-min Rain = 0
KAM1 160108Z 11004KT 21/10 A2992 RMK A01 T02110102  RH  050%=      5-min Rain = 0
KAM1 160109Z 10006KT 21/10 A2992 RMK A01 T02080103  RH  051%=      5-min Rain = 0
KAM1 160110Z 09007KT 21/10 A2992 RMK A01 T02080100  RH  050%=      5-min Rain = 0
KAM1 160111Z 10005KT 21/09 A2992 RMK A01 T02090086  RH  045%=      5-min Rain = 0
KAM1 160112Z 08008KT 21/09 A2991 RMK A01 T02140085  RH  044%=      5-min Rain = 0
KAM1 160113Z 08008KT 22/09 A2991 RMK A01 T02160085  RH  043%=      5-min Rain = 0
KAM1 160114Z 08008KT 22/08 A2991 RMK A01 T02180083  RH  042%=      5-min Rain = 0
KAM1 160115Z 09009KT 22/08 A2991 RMK A01 T02210082  RH  041%=      5-min Rain = 0
KAM1 160116Z 09007KT 22/08 A2991 RMK A01 T02220083  RH  041%=      5-min Rain = 0
KAM1 160117Z 08006KT 22/09 A299 RMK A01 T02220087  RH  042%=      5-min Rain = 0
KAM1 160118Z 09006KT 22/09 A299 RMK A01 T02210087  RH  042%=      5-min Rain = 0
KAM1 160119Z 08006KT 22/08 A299 RMK A01 T02210081  RH  041%=      5-min Rain = 0
KAM1 160120Z 09005KT 22/09 A2989 RMK A01 T02230085  RH  041%=      5-min Rain = 0
KAM1 160121Z 07007KT 22/09 A2988 RMK A01 T02230086  RH  042%=      5-min Rain = 0
KAM1 160122Z 07010KT 22/09 A2988 RMK A01 T02220085  RH  041%=      5-min Rain = 0
KAM1 160123Z 06011KT 22/09 A2987 RMK A01 T02220085  RH  042%=      5-min Rain = 0
KAM1 160124Z 06013KT 22/09 A2986 RMK A01 T02210085  RH  042%=      5-min Rain = 0
KAM1 160125Z 06013KT 22/08 A2985 RMK A01 T02210083  RH  041%=      5-min Rain = 0
KAM1 160126Z 06013KT 22/08 A2985 RMK A01 T02210082  RH  041%=      5-min Rain = 0
KAM1 160127Z 06014KT 22/08 A2984 RMK A01 T02220080  RH  040%=      5-min Rain = 0
KAM1 160128Z 06015KT 22/07 A2983 RMK A01 T02240073  RH  038%=      5-min Rain = 0
KAM1 160129Z 05014KT 23/07 A2983 RMK A01 T02270069  RH  036%=      5-min Rain = 0
KAM1 160130Z 05014KT 23/07 A2983 RMK A01 T02300070  RH  036%=      5-min Rain = 0
KAM1 160131Z 04012KT 23/07 A2983 RMK A01 T02320068  RH  035%=      5-min Rain = 0
KAM1 160132Z 04011KT 23/07 A2983 RMK A01 T02330073  RH  036%=      5-min Rain = 0
KAM1 160133Z 04008KT 23/08 A2984 RMK A01 T02320075  RH  037%=      5-min Rain = 0
KAM1 160134Z 05007KT 23/08 A2984 RMK A01 T02300077  RH  037%=      5-min Rain = 0
KAM1 160135Z 05007KT 23/08 A2984 RMK A01 T02290075  RH  037%=      5-min Rain = 0
KAM1 160136Z 05006KT 23/07 A2984 RMK A01 T02290072  RH  036%=      5-min Rain = 0
KAM1 160137Z 05006KT 23/07 A2984 RMK A01 T02290070  RH  036%=      5-min Rain = 0
KAM1 160138Z 05007KT 23/07 A2984 RMK A01 T02300073  RH  036%=      5-min Rain = 0
KAM1 160139Z 05006KT 23/07 A2984 RMK A01 T02300068  RH  035%=      5-min Rain = 0
KAM1 160140Z 05006KT 23/07 A2984 RMK A01 T02310069  RH  035%=      5-min Rain = 0
KAM1 160141Z 05007KT 23/07 A2983 RMK A01 T02310070  RH  035%=      5-min Rain = 0
KAM1 160142Z 06008KT 23/07 A2983 RMK A01 T02310070  RH  035%=      5-min Rain = 0
KAM1 160143Z 06009KT 23/07 A2983 RMK A01 T02310067  RH  035%=      5-min Rain = 0
KAM1 160144Z 06008KT 23/07 A2982 RMK A01 T02310068  RH  035%=      5-min Rain = 0
KAM1 160145Z 06007KT 23/07 A2982 RMK A01 T02310071  RH  036%=      5-min Rain = 0
KAM1 160146Z 05006KT 23/07 A2982 RMK A01 T02300070  RH  036%=      5-min Rain = 0
KAM1 160147Z 07004KT 23/07 A2982 RMK A01 T02300072  RH  036%=      5-min Rain = 0
KAM1 160148Z 07006KT 23/08 A2982 RMK A01 T02280076  RH  038%=      5-min Rain = 0
KAM1 160149Z 08005KT 23/08 A2982 RMK A01 T02260079  RH  039%=      5-min Rain = 0
KAM1 160150Z 10005KT 22/08 A2982 RMK A01 T02230081  RH  040%=      5-min Rain = 0
KAM1 160151Z 12005KT 22/08 A2981 RMK A01 T02210083  RH  041%=      5-min Rain = 0
KAM1 160152Z 14007KT 22/09 A2981 RMK A01 T02180090  RH  044%=      5-min Rain = 0
KAM1 160153Z 15010KT 21/09 A2981 RMK A01 T02130094  RH  047%=      5-min Rain = 0
KAM1 160154Z 15010KT 21/09 A2982 RMK A01 T02090094  RH  048%=      5-min Rain = 0
KAM1 160155Z 15011KT 21/09 A2982 RMK A01 T02070090  RH  047%=      5-min Rain = 0
KAM1 160156Z 15012KT 21/08 A2982 RMK A01 T02090077  RH  042%=      5-min Rain = 0
KAM1 160157Z 14014KT 22/08 A2982 RMK A01 T02160075  RH  040%=      5-min Rain = 0
KAM1 160158Z 13011KT 22/08 A2982 RMK A01 T02190080  RH  041%=      5-min Rain = 0
KAM1 160159Z 13008KT 22/09 A2982 RMK A01 T02200087  RH  042%=      5-min Rain = 0
KAM1 160200Z 12009KT 22/09 A2983 RMK A01 T02180089  RH  043%=      5-min Rain = 0
KAM1 160201Z 13006KT 22/09 A2983 RMK A01 T02160090  RH  044%=      5-min Rain = 0
KAM1 160202Z 14006KT 21/09 A2983 RMK A01 T02140092  RH  045%=      5-min Rain = 0
KAM1 160203Z 13005KT 21/09 A2983 RMK A01 T02120094  RH  047%=      5-min Rain = 0
KAM1 160204Z 13007KT 21/10 A2983 RMK A01 T02100095  RH  048%=      5-min Rain = 0
KAM1 160205Z 14007KT 21/10 A2983 RMK A01 T02080096  RH  049%=      5-min Rain = 0
KAM1 160206Z 14009KT 21/10 A2983 RMK A01 T02060096  RH  049%=      5-min Rain = 0
KAM1 160207Z 15009KT 21/10 A2984 RMK A01 T02050096  RH  049%=      5-min Rain = 0
KAM1 160208Z 15012KT 21/10 A2984 RMK A01 T02050096  RH  050%=      5-min Rain = 0
KAM1 160209Z 16011KT 20/10 A2984 RMK A01 T02040096  RH  050%=      5-min Rain = 0
KAM1 160210Z 16010KT 20/10 A2984 RMK A01 T02040098  RH  051%=      5-min Rain = 0
KAM1 160211Z 16010KT 20/10 A2984 RMK A01 T02030098  RH  051%=      5-min Rain = 0
KAM1 160212Z 15010KT 20/10 A2985 RMK A01 T02030098  RH  051%=      5-min Rain = 0
KAM1 160213Z 15011KT 20/10 A2985 RMK A01 T02030098  RH  051%=      5-min Rain = 0
KAM1 160214Z 15011KT 20/10 A2985 RMK A01 T02040098  RH  051%=      5-min Rain = 0
KAM1 160215Z 16011KT 20/10 A2985 RMK A01 T02040098  RH  050%=      5-min Rain = 0
KAM1 160216Z 16011KT 20/10 A2985 RMK A01 T02040099  RH  051%=      5-min Rain = 0
KAM1 160217Z 15010KT 20/10 A2985 RMK A01 T02040099  RH  051%=      5-min Rain = 0
KAM1 160218Z 15010KT 20/10 A2985 RMK A01 T02030098  RH  051%=      5-min Rain = 0
KAM1 160219Z 16011KT 20/10 A2985 RMK A01 T02030097  RH  051%=      5-min Rain = 0
KAM1 160220Z 17010KT 20/10 A2985 RMK A01 T02030098  RH  051%=      5-min Rain = 0
KAM1 160221Z 17011KT 20/10 A2985 RMK A01 T02020099  RH  051%=      5-min Rain = 0
KAM1 160222Z 17009KT 20/10 A2985 RMK A01 T02020100  RH  052%=      5-min Rain = 0
KAM1 160223Z 17010KT 20/10 A2985 RMK A01 T02010101  RH  052%=      5-min Rain = 0
KAM1 160224Z 16009KT 20/10 A2985 RMK A01 T02010102  RH  053%=      5-min Rain = 0
KAM1 160225Z 16010KT 20/10 A2985 RMK A01 T02000102  RH  053%=      5-min Rain = 0
KAM1 160226Z 16008KT 20/10 A2985 RMK A01 T02000103  RH  053%=      5-min Rain = 0
KAM1 160227Z 15008KT 20/10 A2985 RMK A01 T02000103  RH  054%=      5-min Rain = 0
KAM1 160228Z 15008KT 20/10 A2986 RMK A01 T01990103  RH  054%=      5-min Rain = 0
KAM1 160229Z 15008KT 20/10 A2986 RMK A01 T01990103  RH  054%=      5-min Rain = 0
KAM1 160230Z 15007KT 20/10 A2986 RMK A01 T01980103  RH  054%=      5-min Rain = 0
KAM1 160231Z 15007KT 20/10 A2986 RMK A01 T01980103  RH  055%=      5-min Rain = 0
KAM1 160232Z 15006KT 20/10 A2986 RMK A01 T01970104  RH  055%=      5-min Rain = 0
KAM1 160233Z 17004KT 20/10 A2987 RMK A01 T01970103  RH  055%=      5-min Rain = 0
KAM1 160234Z 30009G24KT 20/11 A299 RMK A01 T01960106  RH  056%=      5-min Rain = 0
KAM1 160235Z 30026KT 19/11 A2993 RMK A01 T01930109  RH  058%=      5-min Rain = 0
KAM1 160236Z 30020G26KT 19/11 A2993 RMK A01 T01930106  RH  057%=      5-min Rain = 0
KAM1 160237Z 29013KT 20/11 A2993 RMK A01 T01960106  RH  056%=      5-min Rain = 0
KAM1 160238Z 30016G24KT 20/11 A2993 RMK A01 T01980105  RH  055%=      5-min Rain = 0
KAM1 160239Z 31026G32KT 20/10 A2993 RMK A01 T02030100  RH  052%=      5-min Rain = 0
KAM1 160240Z 30025G32KT 21/09 A2993 RMK A01 T02130094  RH  047%=      5-min Rain = 0
KAM1 160241Z 30020G26KT 23/07 A2994 RMK A01 T02260072  RH  037%=      5-min Rain = 0
KAM1 160242Z 29026G34KT 24/10 A2994 RMK A01 T02360099  RH  042%=      5-min Rain = 0
KAM1 160243Z 30024G29KT 23/12 A2994 RMK A01 T02290115  RH  049%=      5-min Rain = 0
KAM1 160244Z 31025G30KT 22/12 A2994 RMK A01 T02190117  RH  052%=      5-min Rain = 0
KAM1 160245Z 31022G27KT 21/12 A2995 RMK A01 T02130118  RH  054%=      5-min Rain = 0
KAM1 160246Z 31022KT 21/12 A2995 RMK A01 T02100119  RH  056%=      5-min Rain = 0
KAM1 160247Z 31024KT 21/12 A2995 RMK A01 T02070118  RH  057%=      5-min Rain = 0
KAM1 160248Z 31020KT 21/12 A2995 RMK A01 T02050118  RH  057%=      5-min Rain = 0
KAM1 160249Z 32018G24KT 20/12 A2995 RMK A01 T02040118  RH  058%=      5-min Rain = 0
KAM1 160250Z 32019KT 20/12 A2994 RMK A01 T02020116  RH  058%=      5-min Rain = 0
KAM1 160251Z 33019KT 20/12 A2994 RMK A01 T02020115  RH  057%=      5-min Rain = 0
KAM1 160252Z 32017KT 20/11 A2994 RMK A01 T02010113  RH  057%=      5-min Rain = 0
KAM1 160253Z 32017G23KT 20/11 A2994 RMK A01 T02010114  RH  057%=      5-min Rain = 0
KAM1 160254Z 33017KT 20/11 A2994 RMK A01 T02000112  RH  057%=      5-min Rain = 0
KAM1 160255Z 33015G20KT 20/11 A2994 RMK A01 T01990112  RH  057%=      5-min Rain = 0
KAM1 160256Z 33018KT 20/11 A2993 RMK A01 T01980111  RH  057%=      5-min Rain = 0
KAM1 160257Z 32015KT 20/11 A2993 RMK A01 T01960112  RH  058%=      5-min Rain = 0
KAM1 160258Z 33012G17KT 20/11 A2993 RMK A01 T01950111  RH  058%=      5-min Rain = 0
KAM1 160259Z 33014KT 19/11 A2993 RMK A01 T01940111  RH  059%=      5-min Rain = 0
KAM1 160300Z 33014KT 19/11 A2993 RMK A01 T01930111  RH  059%=      5-min Rain = 0
KAM1 160301Z 32013KT 19/11 A2993 RMK A01 T01930112  RH  059%=      5-min Rain = 0
KAM1 160302Z 33013KT 19/11 A2993 RMK A01 T01910112  RH  060%=      5-min Rain = 0
KAM1 160303Z 33012G18KT 19/11 A2994 RMK A01 T01910111  RH  060%=      5-min Rain = 0
KAM1 160304Z 33015G21KT 19/11 A2994 RMK A01 T01910111  RH  060%=      5-min Rain = 0
KAM1 160305Z 33018KT 19/11 A2994 RMK A01 T01910107  RH  058%=      5-min Rain = 0
KAM1 160306Z 33015KT 19/11 A2994 RMK A01 T01910106  RH  057%=      5-min Rain = 0
KAM1 160307Z 33014G20KT 19/11 A2994 RMK A01 T01920105  RH  057%=      5-min Rain = 0
KAM1 160308Z 32016KT 19/10 A2994 RMK A01 T01910103  RH  057%=      5-min Rain = 0
KAM1 160309Z 33013KT 19/10 A2993 RMK A01 T01900103  RH  057%=      5-min Rain = 0
KAM1 160310Z 34016KT 19/10 A2993 RMK A01 T01900103  RH  057%=      5-min Rain = 0
KAM1 160311Z 34014KT 19/10 A2994 RMK A01 T01890103  RH  057%=      5-min Rain = 0
KAM1 160312Z 34012KT 19/10 A2994 RMK A01 T01880104  RH  058%=      5-min Rain = 0
KAM1 160313Z 34012KT 19/10 A2994 RMK A01 T01870104  RH  058%=      5-min Rain = 0
KAM1 160314Z 35019G24KT 19/10 A2994 RMK A01 T01860102  RH  058%=      5-min Rain = 0
KAM1 160315Z 35017KT 19/10 A2994 RMK A01 T01870100  RH  057%=      5-min Rain = 0
KAM1 160316Z 35015G22KT 19/10 A2994 RMK A01 T01870100  RH  057%=      5-min Rain = 0
KAM1 160317Z 34017KT 19/10 A2994 RMK A01 T01880100  RH  057%=      5-min Rain = 0
KAM1 160318Z 35017G23KT 19/10 A2994 RMK A01 T01880100  RH  057%=      5-min Rain = 0
KAM1 160319Z 34017KT 19/10 A2994 RMK A01 T01880101  RH  057%=      5-min Rain = 0
KAM1 160320Z 35014G19KT 19/10 A2995 RMK A01 T01880101  RH  057%=      5-min Rain = 0
KAM1 160321Z 35017KT 19/10 A2995 RMK A01 T01870100  RH  057%=      5-min Rain = 0
KAM1 160322Z 35015G22KT 19/10 A2995 RMK A01 T01880101  RH  057%=      5-min Rain = 0
KAM1 160323Z 36017KT 19/10 A2995 RMK A01 T01870101  RH  057%=      5-min Rain = 0
KAM1 160324Z 35016KT 19/10 A2995 RMK A01 T01870102  RH  057%=      5-min Rain = 0
KAM1 160325Z 36017KT 19/10 A2994 RMK A01 T01870101  RH  058%=      5-min Rain = 0
KAM1 160326Z 35018KT 19/10 A2994 RMK A01 T01870103  RH  058%=      5-min Rain = 0
KAM1 160327Z 35016KT 19/10 A2994 RMK A01 T01860103  RH  058%=      5-min Rain = 0
KAM1 160328Z 36013G20KT 19/10 A2994 RMK A01 T01860104  RH  059%=      5-min Rain = 0
KAM1 160329Z 01012KT 19/10 A2993 RMK A01 T01850104  RH  059%=      5-min Rain = 0
KAM1 160330Z 36015G23KT 18/11 A2993 RMK A01 T01840105  RH  060%=      5-min Rain = 0
KAM1 160331Z 36017KT 18/10 A2993 RMK A01 T01840104  RH  059%=      5-min Rain = 0
KAM1 160332Z 36015G20KT 18/10 A2993 RMK A01 T01840104  RH  060%=      5-min Rain = 0
KAM1 160333Z 00016KT 19/11 A2993 RMK A01 T01850105  RH  060%=      5-min Rain = 0
KAM1 160334Z 36017KT 18/11 A2993 RMK A01 T01840106  RH  060%=      5-min Rain = 0
KAM1 160335Z 00018KT 18/11 A2993 RMK A01 T01840106  RH  060%=      5-min Rain = 0
KAM1 160336Z 00017KT 18/11 A2993 RMK A01 T01840106  RH  060%=      5-min Rain = 0
KAM1 160337Z 36016KT 18/11 A2993 RMK A01 T01840107  RH  061%=      5-min Rain = 0
KAM1 160338Z 36014KT 18/11 A2993 RMK A01 T01840107  RH  061%=      5-min Rain = 0
KAM1 160339Z 01014G20KT 18/11 A2993 RMK A01 T01830107  RH  061%=      5-min Rain = 0
KAM1 160340Z 01020G25KT 18/11 A2993 RMK A01 T01830107  RH  061%=      5-min Rain = 0
KAM1 160341Z 01019KT 18/11 A2993 RMK A01 T01830106  RH  061%=      5-min Rain = 0
KAM1 160342Z 01018KT 18/11 A2993 RMK A01 T01830107  RH  061%=      5-min Rain = 0
KAM1 160343Z 02019G24KT 18/11 A2993 RMK A01 T01830107  RH  061%=      5-min Rain = 0
KAM1 160344Z 01019KT 18/11 A2993 RMK A01 T01820107  RH  062%=      5-min Rain = 0
KAM1 160345Z 01019G25KT 18/11 A2993 RMK A01 T01810108  RH  062%=      5-min Rain = 0
KAM1 160346Z 01021G26KT 18/11 A2993 RMK A01 T01800108  RH  063%=      5-min Rain = 0
KAM1 160347Z 01018KT 18/11 A2993 RMK A01 T01790109  RH  064%=      5-min Rain = 0
KAM1 160348Z 01017KT 18/11 A2993 RMK A01 T01780109  RH  064%=      5-min Rain = 0
KAM1 160349Z 01018KT 18/11 A2993 RMK A01 T01770109  RH  064%=      5-min Rain = 0
KAM1 160350Z 00021G26KT 18/11 A2993 RMK A01 T01770108  RH  064%=      5-min Rain = 0
KAM1 160351Z 00019G24KT 18/11 A2993 RMK A01 T01770108  RH  064%=      5-min Rain = 0
KAM1 160352Z 01020G25KT 18/11 A2993 RMK A01 T01760108  RH  064%=      5-min Rain = 0
KAM1 160353Z 01021KT 18/11 A2992 RMK A01 T01760107  RH  064%=      5-min Rain = 0
KAM1 160354Z 01017KT 18/11 A2992 RMK A01 T01760107  RH  064%=      5-min Rain = 0
KAM1 160355Z 01015KT 18/11 A2993 RMK A01 T01760108  RH  064%=      5-min Rain = 0
KAM1 160356Z 01017G22KT 18/11 A2993 RMK A01 T01760107  RH  064%=      5-min Rain = 0
KAM1 160357Z 01018KT 18/11 A2993 RMK A01 T01750107  RH  064%=      5-min Rain = 0
KAM1 160358Z 01016G22KT 18/11 A2993 RMK A01 T01750107  RH  064%=      5-min Rain = 0
KAM1 160359Z 01019KT 17/11 A2993 RMK A01 T01740106  RH  064%=      5-min Rain = 0
KAM1 160400Z 01016KT 17/11 A2992 RMK A01 T01730106  RH  065%=      5-min Rain = 0
KAM1 160401Z 01017KT 17/11 A2992 RMK A01 T01720106  RH  065%=      5-min Rain = 0
KAM1 160402Z 01015G21KT 17/11 A2992 RMK A01 T01710106  RH  065%=      5-min Rain = 0
KAM1 160403Z 01016KT 17/11 A2992 RMK A01 T01710106  RH  065%=      5-min Rain = 0
KAM1 160404Z 01016KT 17/11 A2992 RMK A01 T01710105  RH  065%=      5-min Rain = 0
KAM1 160405Z 01013KT 17/10 A2992 RMK A01 T01720103  RH  064%=      5-min Rain = 0
KAM1 160406Z 36013G18KT 17/10 A2992 RMK A01 T01730104  RH  064%=      5-min Rain = 0
KAM1 160407Z 00016KT 17/10 A2992 RMK A01 T01720103  RH  064%=      5-min Rain = 0
KAM1 160408Z 00016G21KT 17/10 A2992 RMK A01 T01720103  RH  064%=      5-min Rain = 0
KAM1 160409Z 00017G22KT 17/10 A2992 RMK A01 T01710103  RH  064%=      5-min Rain = 0
KAM1 160410Z 00016G21KT 17/10 A2992 RMK A01 T01710104  RH  065%=      5-min Rain = 0
KAM1 160411Z 01014KT 17/10 A2992 RMK A01 T01710104  RH  065%=      5-min Rain = 0
KAM1 160412Z 01013KT 17/10 A2991 RMK A01 T01700104  RH  065%=      5-min Rain = 0
KAM1 160413Z 01014KT 17/10 A2991 RMK A01 T01700104  RH  065%=      5-min Rain = 0
KAM1 160414Z 01012KT 17/10 A2991 RMK A01 T01700104  RH  065%=      5-min Rain = 0
KAM1 160415Z 01011KT 17/11 A2992 RMK A01 T01700105  RH  065%=      5-min Rain = 0
KAM1 160416Z 01011KT 17/10 A2992 RMK A01 T01700104  RH  065%=      5-min Rain = 0
KAM1 160417Z 02011KT 17/11 A2992 RMK A01 T01690105  RH  066%=      5-min Rain = 0
KAM1 160418Z 01013KT 17/10 A2992 RMK A01 T01690104  RH  065%=      5-min Rain = 0
KAM1 160419Z 02012KT 17/10 A2992 RMK A01 T01690103  RH  065%=      5-min Rain = 0
KAM1 160420Z 02014KT 17/10 A2992 RMK A01 T01690104  RH  065%=      5-min Rain = 0
KAM1 160421Z 02013KT 17/10 A2992 RMK A01 T01690104  RH  066%=      5-min Rain = 0
KAM1 160422Z 02012KT 17/11 A2992 RMK A01 T01690105  RH  066%=      5-min Rain = 0
KAM1 160423Z 01013KT 17/11 A2992 RMK A01 T01680105  RH  066%=      5-min Rain = 0
KAM1 160424Z 02011KT 17/11 A2993 RMK A01 T01680106  RH  066%=      5-min Rain = 0
KAM1 160425Z 02013KT 17/11 A2993 RMK A01 T01680106  RH  067%=      5-min Rain = 0
KAM1 160426Z 02011KT 17/11 A2993 RMK A01 T01680105  RH  067%=      5-min Rain = 0
KAM1 160427Z 02011KT 17/11 A2993 RMK A01 T01670106  RH  067%=      5-min Rain = 0
KAM1 160428Z 02015KT 17/11 A2993 RMK A01 T01670106  RH  067%=      5-min Rain = 0
KAM1 160429Z 02014KT 17/11 A2993 RMK A01 T01670105  RH  067%=      5-min Rain = 0
KAM1 160430Z 02012KT 17/11 A2993 RMK A01 T01680105  RH  067%=      5-min Rain = 0
KAM1 160431Z 02011KT 17/11 A2993 RMK A01 T01680106  RH  067%=      5-min Rain = 0
KAM1 160432Z 03012KT 17/11 A2993 RMK A01 T01670106  RH  067%=      5-min Rain = 0
KAM1 160433Z 03011KT 17/11 A2993 RMK A01 T01670107  RH  068%=      5-min Rain = 0
KAM1 160434Z 02012KT 17/11 A2993 RMK A01 T01660108  RH  068%=      5-min Rain = 0
KAM1 160435Z 03013KT 17/11 A2993 RMK A01 T01660108  RH  069%=      5-min Rain = 0
KAM1 160436Z 02012KT 17/11 A2993 RMK A01 T01650108  RH  069%=      5-min Rain = 0
KAM1 160437Z 02012KT 17/11 A2992 RMK A01 T01650109  RH  069%=      5-min Rain = 0
KAM1 160438Z 02016KT 17/11 A2992 RMK A01 T01650108  RH  069%=      5-min Rain = 0
KAM1 160439Z 02016KT 17/11 A2992 RMK A01 T01650108  RH  069%=      5-min Rain = 0
KAM1 160440Z 03015KT 17/11 A2992 RMK A01 T01650108  RH  069%=      5-min Rain = 0
KAM1 160441Z 02014KT 17/11 A2992 RMK A01 T01650109  RH  069%=      5-min Rain = 0
KAM1 160442Z 02014KT 16/11 A2992 RMK A01 T01640109  RH  070%=      5-min Rain = 0
KAM1 160443Z 02013G18KT 16/11 A2992 RMK A01 T01640109  RH  070%=      5-min Rain = 0
KAM1 160444Z 02014KT 16/11 A2992 RMK A01 T01630109  RH  070%=      5-min Rain = 0
KAM1 160445Z 02016KT 16/11 A2992 RMK A01 T01630109  RH  070%=      5-min Rain = 0
KAM1 160446Z 02012KT 16/11 A2992 RMK A01 T01630109  RH  070%=      5-min Rain = 0
KAM1 160447Z 01013KT 16/11 A2992 RMK A01 T01630110  RH  070%=      5-min Rain = 0
KAM1 160448Z 02012KT 16/11 A2992 RMK A01 T01630110  RH  071%=      5-min Rain = 0
KAM1 160449Z 01013KT 16/11 A2992 RMK A01 T01630110  RH  071%=      5-min Rain = 0
KAM1 160450Z 01012KT 16/11 A2992 RMK A01 T01630109  RH  070%=      5-min Rain = 0
KAM1 160451Z 01011KT 16/11 A2992 RMK A01 T01640109  RH  070%=      5-min Rain = 0
KAM1 160452Z 01011KT 17/11 A2992 RMK A01 T01650109  RH  070%=      5-min Rain = 0
KAM1 160453Z 01013KT 17/11 A2992 RMK A01 T01650109  RH  069%=      5-min Rain = 0
KAM1 160454Z 01013KT 17/11 A2992 RMK A01 T01660108  RH  069%=      5-min Rain = 0
KAM1 160455Z 01013KT 17/11 A2991 RMK A01 T01670108  RH  068%=      5-min Rain = 0
KAM1 160456Z 01013KT 17/11 A2991 RMK A01 T01680107  RH  067%=      5-min Rain = 0
KAM1 160457Z 01012KT 17/11 A2991 RMK A01 T01690107  RH  067%=      5-min Rain = 0
KAM1 160458Z 00012KT 17/11 A2991 RMK A01 T01690107  RH  067%=      5-min Rain = 0
KAM1 160459Z 00011KT 17/11 A2991 RMK A01 T01690107  RH  066%=      5-min Rain = 0

Page generated in 0.0363 seconds.